<?xml version='1.0' encoding='UTF-8'?><gpx version="1.1" creator="JPX - https://github.com/jenetics/jpx" xmlns="http://www.topografix.com/GPX/1/1"><trk><trkseg><trkpt lat="40.9293767" lon="14.2706833"><ele>54.99999999999999</ele><time>2026-04-28T15:27:30.439Z</time></trkpt><trkpt lat="40.9294683" lon="14.2707067"><ele>55.0</ele><time>2026-04-28T15:29:40.439Z</time></trkpt><trkpt lat="40.9295267" lon="14.2706717"><ele>55.0</ele><time>2026-04-28T15:29:47.439Z</time></trkpt><trkpt lat="40.9295917" lon="14.27063"><ele>55.0</ele><time>2026-04-28T15:29:51.44Z</time></trkpt><trkpt lat="40.9296533" lon="14.27059"><ele>54.99999999999999</ele><time>2026-04-28T15:29:56.441Z</time></trkpt><trkpt lat="40.9297337" lon="14.27056"><ele>55.0</ele><time>2026-04-28T15:30:04.532Z</time></trkpt><trkpt lat="40.9297997" lon="14.2705356"><ele>54.83333333333333</ele><time>2026-04-28T15:30:08.544Z</time></trkpt><trkpt lat="40.9298643" lon="14.2705087"><ele>54.666666666666664</ele><time>2026-04-28T15:30:14.525Z</time></trkpt><trkpt lat="40.9299624" lon="14.2705045"><ele>54.5</ele><time>2026-04-28T15:30:26.549Z</time></trkpt><trkpt lat="40.9300389" lon="14.2704801"><ele>54.33333333333333</ele><time>2026-04-28T15:30:29.558Z</time></trkpt><trkpt lat="40.9301038" lon="14.2704766"><ele>54.166666666666664</ele><time>2026-04-28T15:30:34.534Z</time></trkpt><trkpt lat="40.9301834" lon="14.2704812"><ele>54.0</ele><time>2026-04-28T15:30:38.443Z</time></trkpt><trkpt lat="40.9302537" lon="14.2704997"><ele>54.0</ele><time>2026-04-28T15:30:42.509Z</time></trkpt><trkpt lat="40.9303153" lon="14.270521"><ele>54.0</ele><time>2026-04-28T15:30:46.447Z</time></trkpt><trkpt lat="40.9303782" lon="14.2705296"><ele>54.0</ele><time>2026-04-28T15:30:51.497Z</time></trkpt><trkpt lat="40.930444" lon="14.2705243"><ele>54.0</ele><time>2026-04-28T15:30:57.475Z</time></trkpt><trkpt lat="40.9305121" lon="14.2705404"><ele>54.0</ele><time>2026-04-28T15:31:01.441Z</time></trkpt><trkpt lat="40.9306092" lon="14.2705419"><ele>54.0</ele><time>2026-04-28T15:31:07.533Z</time></trkpt><trkpt lat="40.9306752" lon="14.2705833"><ele>54.0</ele><time>2026-04-28T15:31:10.48Z</time></trkpt><trkpt lat="40.9307508" lon="14.2705811"><ele>54.0</ele><time>2026-04-28T15:31:14.491Z</time></trkpt><trkpt lat="40.9308234" lon="14.2705501"><ele>54.0</ele><time>2026-04-28T15:31:18.496Z</time></trkpt><trkpt lat="40.9308836" lon="14.2705832"><ele>54.0</ele><time>2026-04-28T15:31:21.526Z</time></trkpt><trkpt lat="40.9309526" lon="14.2705973"><ele>54.0</ele><time>2026-04-28T15:31:25.547Z</time></trkpt><trkpt lat="40.9310227" lon="14.2706086"><ele>54.0</ele><time>2026-04-28T15:31:31.561Z</time></trkpt><trkpt lat="40.9311012" lon="14.2705759"><ele>54.0</ele><time>2026-04-28T15:31:36.49Z</time></trkpt><trkpt lat="40.9311764" lon="14.2705728"><ele>54.0</ele><time>2026-04-28T15:31:40.427Z</time></trkpt><trkpt lat="40.9312372" lon="14.2706009"><ele>53.833333333333336</ele><time>2026-04-28T15:31:43.398Z</time></trkpt><trkpt lat="40.931314" lon="14.2706375"><ele>53.66666666666667</ele><time>2026-04-28T15:31:47.512Z</time></trkpt><trkpt lat="40.931383" lon="14.2706775"><ele>53.5</ele><time>2026-04-28T15:31:51.549Z</time></trkpt><trkpt lat="40.9314617" lon="14.2706609"><ele>53.333333333333336</ele><time>2026-04-28T15:31:58.547Z</time></trkpt><trkpt lat="40.9315358" lon="14.2706904"><ele>53.16666666666667</ele><time>2026-04-28T15:32:03.544Z</time></trkpt><trkpt lat="40.9316058" lon="14.2707028"><ele>53.0</ele><time>2026-04-28T15:32:07.512Z</time></trkpt><trkpt lat="40.9316694" lon="14.2706513"><ele>53.142857142857146</ele><time>2026-04-28T15:32:12.579Z</time></trkpt><trkpt lat="40.9317523" lon="14.2706764"><ele>53.285714285714285</ele><time>2026-04-28T15:32:17.536Z</time></trkpt><trkpt lat="40.9318279" lon="14.2707022"><ele>53.42857142857143</ele><time>2026-04-28T15:32:20.568Z</time></trkpt><trkpt lat="40.9319042" lon="14.2707089"><ele>53.57142857142857</ele><time>2026-04-28T15:32:25.55Z</time></trkpt><trkpt lat="40.9319593" lon="14.2706495"><ele>53.71428571428571</ele><time>2026-04-28T15:32:30.507Z</time></trkpt><trkpt lat="40.9320284" lon="14.2706448"><ele>53.857142857142854</ele><time>2026-04-28T15:32:34.505Z</time></trkpt><trkpt lat="40.9320785" lon="14.2705925"><ele>54.0</ele><time>2026-04-28T15:32:40.52Z</time></trkpt><trkpt lat="40.9321792" lon="14.270645"><ele>54.0</ele><time>2026-04-28T15:32:42.539Z</time></trkpt><trkpt lat="40.9322429" lon="14.2706281"><ele>54.0</ele><time>2026-04-28T15:32:45.47Z</time></trkpt><trkpt lat="40.932308" lon="14.2706036"><ele>54.0</ele><time>2026-04-28T15:32:49.545Z</time></trkpt><trkpt lat="40.9323812" lon="14.2705989"><ele>54.0</ele><time>2026-04-28T15:32:53.413Z</time></trkpt><trkpt lat="40.9324593" lon="14.2705903"><ele>54.0</ele><time>2026-04-28T15:32:58.569Z</time></trkpt><trkpt lat="40.9325218" lon="14.2705458"><ele>54.0</ele><time>2026-04-28T15:33:02.565Z</time></trkpt><trkpt lat="40.9326306" lon="14.2704816"><ele>53.857142857142854</ele><time>2026-04-28T15:33:11.469Z</time></trkpt><trkpt lat="40.9327026" lon="14.2704912"><ele>53.71428571428571</ele><time>2026-04-28T15:33:15.417Z</time></trkpt><trkpt lat="40.9327411" lon="14.2704049"><ele>53.57142857142857</ele><time>2026-04-28T15:33:19.435Z</time></trkpt><trkpt lat="40.9328209" lon="14.2703856"><ele>53.42857142857143</ele><time>2026-04-28T15:33:25.519Z</time></trkpt><trkpt lat="40.9328766" lon="14.2703411"><ele>53.285714285714285</ele><time>2026-04-28T15:33:28.546Z</time></trkpt><trkpt lat="40.9329433" lon="14.2703084"><ele>53.142857142857146</ele><time>2026-04-28T15:33:32.477Z</time></trkpt><trkpt lat="40.9330045" lon="14.2702522"><ele>53.0</ele><time>2026-04-28T15:33:36.519Z</time></trkpt><trkpt lat="40.9330654" lon="14.2702091"><ele>53.0</ele><time>2026-04-28T15:33:40.557Z</time></trkpt><trkpt lat="40.933139" lon="14.2701987"><ele>53.0</ele><time>2026-04-28T15:33:45.502Z</time></trkpt><trkpt lat="40.933205" lon="14.2701869"><ele>53.0</ele><time>2026-04-28T15:33:49.54Z</time></trkpt><trkpt lat="40.9332115" lon="14.2700852"><ele>53.0</ele><time>2026-04-28T15:33:54.486Z</time></trkpt><trkpt lat="40.9332821" lon="14.2700768"><ele>53.0</ele><time>2026-04-28T15:33:57.513Z</time></trkpt><trkpt lat="40.9333556" lon="14.2700508"><ele>53.0</ele><time>2026-04-28T15:34:00.541Z</time></trkpt><trkpt lat="40.9334152" lon="14.2700134"><ele>53.0</ele><time>2026-04-28T15:34:04.078Z</time></trkpt><trkpt lat="40.9334801" lon="14.2699817"><ele>53.0</ele><time>2026-04-28T15:34:08.477Z</time></trkpt><trkpt lat="40.9335365" lon="14.2699276"><ele>53.0</ele><time>2026-04-28T15:34:13.525Z</time></trkpt><trkpt lat="40.9335852" lon="14.2698607"><ele>53.0</ele><time>2026-04-28T15:34:18.557Z</time></trkpt><trkpt lat="40.9336449" lon="14.2698135"><ele>53.0</ele><time>2026-04-28T15:34:22.494Z</time></trkpt><trkpt lat="40.9336959" lon="14.2697524"><ele>53.0</ele><time>2026-04-28T15:34:26.531Z</time></trkpt><trkpt lat="40.9337865" lon="14.2697614"><ele>53.0</ele><time>2026-04-28T15:34:31.496Z</time></trkpt><trkpt lat="40.9338511" lon="14.2697142"><ele>53.0</ele><time>2026-04-28T15:34:34.524Z</time></trkpt><trkpt lat="40.9339093" lon="14.269677"><ele>52.833333333333336</ele><time>2026-04-28T15:34:38.562Z</time></trkpt><trkpt lat="40.9339773" lon="14.2696106"><ele>52.66666666666667</ele><time>2026-04-28T15:34:45.548Z</time></trkpt><trkpt lat="40.9340419" lon="14.269586"><ele>52.5</ele><time>2026-04-28T15:34:47.567Z</time></trkpt><trkpt lat="40.9340929" lon="14.2695258"><ele>52.33333333333333</ele><time>2026-04-28T15:34:50.534Z</time></trkpt><trkpt lat="40.934163" lon="14.2694828"><ele>52.166666666666664</ele><time>2026-04-28T15:34:54.548Z</time></trkpt><trkpt lat="40.9342481" lon="14.2694248"><ele>52.0</ele><time>2026-04-28T15:35:00.532Z</time></trkpt><trkpt lat="40.9343043" lon="14.269386"><ele>52.285714285714285</ele><time>2026-04-28T15:35:03.479Z</time></trkpt><trkpt lat="40.9343659" lon="14.2693546"><ele>52.57142857142858</ele><time>2026-04-28T15:35:08.465Z</time></trkpt><trkpt lat="40.9344308" lon="14.2693143"><ele>52.85714285714286</ele><time>2026-04-28T15:35:13.531Z</time></trkpt><trkpt lat="40.9344822" lon="14.2692085"><ele>53.14285714285714</ele><time>2026-04-28T15:35:21.537Z</time></trkpt><trkpt lat="40.9345299" lon="14.2691411"><ele>53.42857142857143</ele><time>2026-04-28T15:35:23.542Z</time></trkpt><trkpt lat="40.9345762" lon="14.2690731"><ele>53.714285714285715</ele><time>2026-04-28T15:35:29.537Z</time></trkpt><trkpt lat="40.9346213" lon="14.268998"><ele>54.0</ele><time>2026-04-28T15:35:35.567Z</time></trkpt><trkpt lat="40.9346917" lon="14.2689549"><ele>53.857142857142854</ele><time>2026-04-28T15:35:40.402Z</time></trkpt><trkpt lat="40.9347181" lon="14.2688732"><ele>53.71428571428571</ele><time>2026-04-28T15:35:44.535Z</time></trkpt><trkpt lat="40.9347441" lon="14.2687791"><ele>53.57142857142857</ele><time>2026-04-28T15:35:50.491Z</time></trkpt><trkpt lat="40.9347565" lon="14.2686828"><ele>53.42857142857143</ele><time>2026-04-28T15:35:54.42Z</time></trkpt><trkpt lat="40.9347265" lon="14.2686094"><ele>53.285714285714285</ele><time>2026-04-28T15:36:00.492Z</time></trkpt><trkpt lat="40.9347193" lon="14.2684988"><ele>53.142857142857146</ele><time>2026-04-28T15:36:05.539Z</time></trkpt><trkpt lat="40.9346995" lon="14.2683942"><ele>53.0</ele><time>2026-04-28T15:36:09.474Z</time></trkpt><trkpt lat="40.9346504" lon="14.2683258"><ele>53.00000000000001</ele><time>2026-04-28T15:36:14.52Z</time></trkpt><trkpt lat="40.9346271" lon="14.2682283"><ele>53.0</ele><time>2026-04-28T15:36:18.557Z</time></trkpt><trkpt lat="40.9345985" lon="14.2681492"><ele>53.0</ele><time>2026-04-28T15:36:22.495Z</time></trkpt><trkpt lat="40.9345773" lon="14.2680377"><ele>53.0</ele><time>2026-04-28T15:36:27.561Z</time></trkpt><trkpt lat="40.9345887" lon="14.2679345"><ele>53.00000000000001</ele><time>2026-04-28T15:36:31.583Z</time></trkpt><trkpt lat="40.9345631" lon="14.2678317"><ele>53.0</ele><time>2026-04-28T15:36:35.568Z</time></trkpt><trkpt lat="40.9345389" lon="14.2677333"><ele>53.0</ele><time>2026-04-28T15:36:39.571Z</time></trkpt><trkpt lat="40.9345261" lon="14.267648"><ele>53.0</ele><time>2026-04-28T15:36:43.607Z</time></trkpt><trkpt lat="40.9344964" lon="14.267536"><ele>53.0</ele><time>2026-04-28T15:36:50.38Z</time></trkpt><trkpt lat="40.9344737" lon="14.2674441"><ele>53.0</ele><time>2026-04-28T15:36:55.527Z</time></trkpt><trkpt lat="40.9344558" lon="14.2673525"><ele>53.0</ele><time>2026-04-28T15:37:00.575Z</time></trkpt><trkpt lat="40.9344165" lon="14.2672735"><ele>53.0</ele><time>2026-04-28T15:37:04.511Z</time></trkpt><trkpt lat="40.9343863" lon="14.2671985"><ele>53.0</ele><time>2026-04-28T15:37:08.547Z</time></trkpt><trkpt lat="40.9343907" lon="14.2671054"><ele>53.142857142857146</ele><time>2026-04-28T15:37:12.484Z</time></trkpt><trkpt lat="40.934345" lon="14.267035"><ele>53.285714285714285</ele><time>2026-04-28T15:37:16.393Z</time></trkpt><trkpt lat="40.9343254" lon="14.2669427"><ele>53.42857142857143</ele><time>2026-04-28T15:37:20.558Z</time></trkpt><trkpt lat="40.9342775" lon="14.2668704"><ele>53.57142857142857</ele><time>2026-04-28T15:37:25.503Z</time></trkpt><trkpt lat="40.9342371" lon="14.2667789"><ele>53.71428571428571</ele><time>2026-04-28T15:37:29.54Z</time></trkpt><trkpt lat="40.9342202" lon="14.2666794"><ele>53.857142857142854</ele><time>2026-04-28T15:37:33.476Z</time></trkpt><trkpt lat="40.9342171" lon="14.2665907"><ele>54.0</ele><time>2026-04-28T15:37:36.502Z</time></trkpt><trkpt lat="40.9342291" lon="14.266501"><ele>54.285714285714285</ele><time>2026-04-28T15:37:39.534Z</time></trkpt><trkpt lat="40.9342001" lon="14.2664227"><ele>54.57142857142857</ele><time>2026-04-28T15:37:46.492Z</time></trkpt><trkpt lat="40.9341478" lon="14.2663738"><ele>54.85714285714286</ele><time>2026-04-28T15:37:50.53Z</time></trkpt><trkpt lat="40.934106" lon="14.2663084"><ele>55.14285714285714</ele><time>2026-04-28T15:37:54.566Z</time></trkpt><trkpt lat="40.9340555" lon="14.2662234"><ele>55.42857142857143</ele><time>2026-04-28T15:37:58.511Z</time></trkpt><trkpt lat="40.9340306" lon="14.2661324"><ele>55.714285714285715</ele><time>2026-04-28T15:38:02.558Z</time></trkpt><trkpt lat="40.9339503" lon="14.2661644"><ele>56.0</ele><time>2026-04-28T15:38:06.493Z</time></trkpt><trkpt lat="40.9338818" lon="14.2662027"><ele>56.0</ele><time>2026-04-28T15:38:10.531Z</time></trkpt><trkpt lat="40.9338161" lon="14.2662171"><ele>56.0</ele><time>2026-04-28T15:38:13.557Z</time></trkpt><trkpt lat="40.9337492" lon="14.2662142"><ele>56.0</ele><time>2026-04-28T15:38:17.493Z</time></trkpt><trkpt lat="40.9336925" lon="14.2662655"><ele>56.0</ele><time>2026-04-28T15:38:21.53Z</time></trkpt><trkpt lat="40.9336305" lon="14.2663032"><ele>56.0</ele><time>2026-04-28T15:38:25.466Z</time></trkpt><trkpt lat="40.9335544" lon="14.266337"><ele>56.0</ele><time>2026-04-28T15:38:29.556Z</time></trkpt><trkpt lat="40.9334937" lon="14.2663901"><ele>56.0</ele><time>2026-04-28T15:38:33.54Z</time></trkpt><trkpt lat="40.9334331" lon="14.2664129"><ele>55.714285714285715</ele><time>2026-04-28T15:38:37.474Z</time></trkpt><trkpt lat="40.9333662" lon="14.2664612"><ele>55.42857142857143</ele><time>2026-04-28T15:38:43.584Z</time></trkpt><trkpt lat="40.9333028" lon="14.2665172"><ele>55.14285714285714</ele><time>2026-04-28T15:38:48.55Z</time></trkpt><trkpt lat="40.9332595" lon="14.2665852"><ele>54.85714285714286</ele><time>2026-04-28T15:38:52.484Z</time></trkpt><trkpt lat="40.9332055" lon="14.2666332"><ele>54.57142857142857</ele><time>2026-04-28T15:38:56.493Z</time></trkpt><trkpt lat="40.9332065" lon="14.2667256"><ele>54.285714285714285</ele><time>2026-04-28T15:39:00.485Z</time></trkpt><trkpt lat="40.9331477" lon="14.2666485"><ele>54.0</ele><time>2026-04-28T15:39:12.389Z</time></trkpt><trkpt lat="40.9331237" lon="14.2665487"><ele>54.0</ele><time>2026-04-28T15:39:17.459Z</time></trkpt><trkpt lat="40.9330692" lon="14.2666249"><ele>54.0</ele><time>2026-04-28T15:39:18.508Z</time></trkpt><trkpt lat="40.9329957" lon="14.2666752"><ele>54.0</ele><time>2026-04-28T15:39:21.514Z</time></trkpt><trkpt lat="40.9329454" lon="14.2667288"><ele>54.0</ele><time>2026-04-28T15:39:26.513Z</time></trkpt><trkpt lat="40.9328784" lon="14.266712"><ele>54.0</ele><time>2026-04-28T15:39:29.484Z</time></trkpt><trkpt lat="40.9328017" lon="14.2667247"><ele>54.0</ele><time>2026-04-28T15:39:32.457Z</time></trkpt><trkpt lat="40.9327419" lon="14.2667648"><ele>54.0</ele><time>2026-04-28T15:39:36.549Z</time></trkpt><trkpt lat="40.932692" lon="14.2668163"><ele>54.0</ele><time>2026-04-28T15:39:40.487Z</time></trkpt><trkpt lat="40.9326457" lon="14.2668754"><ele>54.0</ele><time>2026-04-28T15:39:46.543Z</time></trkpt><trkpt lat="40.9325815" lon="14.266929"><ele>54.0</ele><time>2026-04-28T15:39:52.497Z</time></trkpt><trkpt lat="40.9325227" lon="14.2669693"><ele>54.0</ele><time>2026-04-28T15:39:57.545Z</time></trkpt><trkpt lat="40.9324625" lon="14.2669968"><ele>54.0</ele><time>2026-04-28T15:40:01.48Z</time></trkpt><trkpt lat="40.932392" lon="14.2669999"><ele>54.0</ele><time>2026-04-28T15:40:04.51Z</time></trkpt><trkpt lat="40.9323397" lon="14.2670616"><ele>54.0</ele><time>2026-04-28T15:40:10.567Z</time></trkpt><trkpt lat="40.9322709" lon="14.2671064"><ele>54.14285714285714</ele><time>2026-04-28T15:40:15.516Z</time></trkpt><trkpt lat="40.9322098" lon="14.2671279"><ele>54.285714285714285</ele><time>2026-04-28T15:40:19.551Z</time></trkpt><trkpt lat="40.9321436" lon="14.2671573"><ele>54.42857142857143</ele><time>2026-04-28T15:40:23.488Z</time></trkpt><trkpt lat="40.932075" lon="14.2672021"><ele>54.57142857142857</ele><time>2026-04-28T15:40:27.536Z</time></trkpt><trkpt lat="40.932012" lon="14.2672253"><ele>54.714285714285715</ele><time>2026-04-28T15:40:31.513Z</time></trkpt><trkpt lat="40.9319437" lon="14.2672412"><ele>54.857142857142854</ele><time>2026-04-28T15:40:35.524Z</time></trkpt><trkpt lat="40.9318797" lon="14.2672448"><ele>55.0</ele><time>2026-04-28T15:40:38.58Z</time></trkpt><trkpt lat="40.9318099" lon="14.2672962"><ele>54.99999999999999</ele><time>2026-04-28T15:40:42.35Z</time></trkpt><trkpt lat="40.93175" lon="14.2673646"><ele>55.0</ele><time>2026-04-28T15:40:46.556Z</time></trkpt><trkpt lat="40.9316896" lon="14.2674016"><ele>55.0</ele><time>2026-04-28T15:40:50.457Z</time></trkpt><trkpt lat="40.9316408" lon="14.2674565"><ele>55.0</ele><time>2026-04-28T15:40:55.523Z</time></trkpt><trkpt lat="40.9315771" lon="14.2675112"><ele>55.0</ele><time>2026-04-28T15:41:06.485Z</time></trkpt><trkpt lat="40.9315466" lon="14.2675958"><ele>54.99999999999999</ele><time>2026-04-28T15:41:10.525Z</time></trkpt><trkpt lat="40.9314826" lon="14.2676531"><ele>55.0</ele><time>2026-04-28T15:41:14.562Z</time></trkpt><trkpt lat="40.9314218" lon="14.2676829"><ele>55.14285714285714</ele><time>2026-04-28T15:41:20.519Z</time></trkpt><trkpt lat="40.9313519" lon="14.2676716"><ele>55.285714285714285</ele><time>2026-04-28T15:41:23.55Z</time></trkpt><trkpt lat="40.931276" lon="14.267694"><ele>55.42857142857143</ele><time>2026-04-28T15:41:28.497Z</time></trkpt><trkpt lat="40.9312198" lon="14.2677362"><ele>55.57142857142857</ele><time>2026-04-28T15:41:33.467Z</time></trkpt><trkpt lat="40.9311716" lon="14.2678072"><ele>55.714285714285715</ele><time>2026-04-28T15:41:39.502Z</time></trkpt><trkpt lat="40.9310972" lon="14.2678333"><ele>55.857142857142854</ele><time>2026-04-28T15:41:45.433Z</time></trkpt><trkpt lat="40.9310289" lon="14.2677959"><ele>56.0</ele><time>2026-04-28T15:41:49.499Z</time></trkpt><trkpt lat="40.9309644" lon="14.2678092"><ele>56.0</ele><time>2026-04-28T15:41:52.547Z</time></trkpt><trkpt lat="40.9308983" lon="14.2677931"><ele>56.0</ele><time>2026-04-28T15:41:56.543Z</time></trkpt><trkpt lat="40.9308333" lon="14.2677859"><ele>56.0</ele><time>2026-04-28T15:42:00.536Z</time></trkpt><trkpt lat="40.9307756" lon="14.2678195"><ele>56.0</ele><time>2026-04-28T15:42:04.473Z</time></trkpt><trkpt lat="40.9307065" lon="14.2678304"><ele>56.0</ele><time>2026-04-28T15:42:09.523Z</time></trkpt><trkpt lat="40.9306426" lon="14.2678389"><ele>56.0</ele><time>2026-04-28T15:42:13.563Z</time></trkpt><trkpt lat="40.9305781" lon="14.267865"><ele>56.0</ele><time>2026-04-28T15:42:19.52Z</time></trkpt><trkpt lat="40.9306033" lon="14.2679607"><ele>56.0</ele><time>2026-04-28T15:42:28.411Z</time></trkpt><trkpt lat="40.9303176" lon="14.2678235"><ele>56.0</ele><time>2026-04-28T15:42:33.558Z</time></trkpt><trkpt lat="40.9302441" lon="14.2678086"><ele>56.0</ele><time>2026-04-28T15:42:35.577Z</time></trkpt><trkpt lat="40.9301743" lon="14.2678171"><ele>56.0</ele><time>2026-04-28T15:42:39.515Z</time></trkpt><trkpt lat="40.930109" lon="14.2678361"><ele>56.14285714285714</ele><time>2026-04-28T15:42:43.556Z</time></trkpt><trkpt lat="40.930038" lon="14.2678381"><ele>56.285714285714285</ele><time>2026-04-28T15:42:48.504Z</time></trkpt><trkpt lat="40.9299716" lon="14.267837"><ele>56.42857142857143</ele><time>2026-04-28T15:42:54.563Z</time></trkpt><trkpt lat="40.9299087" lon="14.2678281"><ele>56.57142857142857</ele><time>2026-04-28T15:42:58.503Z</time></trkpt><trkpt lat="40.9298417" lon="14.2678481"><ele>56.71428571428571</ele><time>2026-04-28T15:43:03.554Z</time></trkpt><trkpt lat="40.929776" lon="14.2678906"><ele>56.857142857142854</ele><time>2026-04-28T15:43:08.456Z</time></trkpt><trkpt lat="40.9297093" lon="14.2679198"><ele>57.0</ele><time>2026-04-28T15:43:13.554Z</time></trkpt><trkpt lat="40.9296445" lon="14.2679192"><ele>57.0</ele><time>2026-04-28T15:43:17.461Z</time></trkpt><trkpt lat="40.929584" lon="14.2679833"><ele>56.99999999999999</ele><time>2026-04-28T15:43:21.532Z</time></trkpt><trkpt lat="40.929521" lon="14.2680271"><ele>57.0</ele><time>2026-04-28T15:43:25.573Z</time></trkpt><trkpt lat="40.9294697" lon="14.268087"><ele>57.0</ele><time>2026-04-28T15:43:29.491Z</time></trkpt><trkpt lat="40.9294376" lon="14.2681757"><ele>56.99999999999999</ele><time>2026-04-28T15:43:33.552Z</time></trkpt><trkpt lat="40.9294002" lon="14.268251"><ele>57.0</ele><time>2026-04-28T15:43:39.512Z</time></trkpt><trkpt lat="40.9294326" lon="14.2683393"><ele>57.0</ele><time>2026-04-28T15:43:44.562Z</time></trkpt><trkpt lat="40.9294576" lon="14.2684159"><ele>56.857142857142854</ele><time>2026-04-28T15:43:50.521Z</time></trkpt><trkpt lat="40.9294818" lon="14.2685044"><ele>56.71428571428571</ele><time>2026-04-28T15:43:56.482Z</time></trkpt><trkpt lat="40.9294949" lon="14.2685877"><ele>56.57142857142857</ele><time>2026-04-28T15:44:01.633Z</time></trkpt><trkpt lat="40.9295206" lon="14.2686692"><ele>56.42857142857143</ele><time>2026-04-28T15:44:05.471Z</time></trkpt><trkpt lat="40.9295431" lon="14.268763"><ele>56.285714285714285</ele><time>2026-04-28T15:44:10.525Z</time></trkpt><trkpt lat="40.9295557" lon="14.2688594"><ele>56.14285714285714</ele><time>2026-04-28T15:44:14.567Z</time></trkpt><trkpt lat="40.9295883" lon="14.2689529"><ele>56.0</ele><time>2026-04-28T15:44:18.507Z</time></trkpt><trkpt lat="40.9296201" lon="14.269037"><ele>55.714285714285715</ele><time>2026-04-28T15:44:22.489Z</time></trkpt><trkpt lat="40.9296532" lon="14.2691232"><ele>55.42857142857143</ele><time>2026-04-28T15:44:26.531Z</time></trkpt><trkpt lat="40.9296799" lon="14.2692107"><ele>55.14285714285714</ele><time>2026-04-28T15:44:31.481Z</time></trkpt><trkpt lat="40.9296846" lon="14.2693035"><ele>54.85714285714286</ele><time>2026-04-28T15:44:36.533Z</time></trkpt><trkpt lat="40.9297088" lon="14.269384"><ele>54.57142857142857</ele><time>2026-04-28T15:44:41.496Z</time></trkpt><trkpt lat="40.9297519" lon="14.2694726"><ele>54.285714285714285</ele><time>2026-04-28T15:44:47.559Z</time></trkpt><trkpt lat="40.9297668" lon="14.2695539"><ele>54.0</ele><time>2026-04-28T15:44:51.501Z</time></trkpt><trkpt lat="40.9297824" lon="14.2696474"><ele>54.0</ele><time>2026-04-28T15:44:56.556Z</time></trkpt><trkpt lat="40.9297872" lon="14.2697386"><ele>54.0</ele><time>2026-04-28T15:45:02.539Z</time></trkpt><trkpt lat="40.9298095" lon="14.2698252"><ele>54.0</ele><time>2026-04-28T15:45:09.437Z</time></trkpt><trkpt lat="40.9298295" lon="14.2699065"><ele>54.0</ele><time>2026-04-28T15:45:13.5Z</time></trkpt><trkpt lat="40.9298664" lon="14.2699752"><ele>54.0</ele><time>2026-04-28T15:45:17.543Z</time></trkpt><trkpt lat="40.9299287" lon="14.2700177"><ele>54.0</ele><time>2026-04-28T15:45:22.553Z</time></trkpt><trkpt lat="40.9299134" lon="14.2701221"><ele>54.0</ele><time>2026-04-28T15:45:25.459Z</time></trkpt><trkpt lat="40.9299015" lon="14.2702123"><ele>54.0</ele><time>2026-04-28T15:45:29.586Z</time></trkpt><trkpt lat="40.9299659" lon="14.2701909"><ele>54.0</ele><time>2026-04-28T15:45:33.48Z</time></trkpt><trkpt lat="40.9300383" lon="14.2702033"><ele>54.0</ele><time>2026-04-28T15:45:37.478Z</time></trkpt><trkpt lat="40.9301" lon="14.2702317"><ele>54.0</ele><time>2026-04-28T15:45:42.469Z</time></trkpt><trkpt lat="40.9301845" lon="14.2702555"><ele>54.0</ele><time>2026-04-28T15:45:45.499Z</time></trkpt><trkpt lat="40.9302641" lon="14.2702766"><ele>54.0</ele><time>2026-04-28T15:45:47.479Z</time></trkpt><trkpt lat="40.9303356" lon="14.2703288"><ele>54.0</ele><time>2026-04-28T15:45:50.53Z</time></trkpt><trkpt lat="40.9304035" lon="14.2703868"><ele>54.0</ele><time>2026-04-28T15:45:54.545Z</time></trkpt><trkpt lat="40.9304887" lon="14.2703755"><ele>54.0</ele><time>2026-04-28T15:45:57.471Z</time></trkpt><trkpt lat="40.9305504" lon="14.2704263"><ele>54.0</ele><time>2026-04-28T15:46:00.523Z</time></trkpt><trkpt lat="40.9306369" lon="14.2704227"><ele>54.0</ele><time>2026-04-28T15:46:03.548Z</time></trkpt><trkpt lat="40.9307027" lon="14.2704406"><ele>54.0</ele><time>2026-04-28T15:46:06.576Z</time></trkpt><trkpt lat="40.9307736" lon="14.2704618"><ele>54.0</ele><time>2026-04-28T15:46:09.574Z</time></trkpt><trkpt lat="40.9308503" lon="14.2704598"><ele>54.0</ele><time>2026-04-28T15:46:12.504Z</time></trkpt><trkpt lat="40.9309419" lon="14.2704935"><ele>54.0</ele><time>2026-04-28T15:46:16.565Z</time></trkpt><trkpt lat="40.9310027" lon="14.2704595"><ele>54.0</ele><time>2026-04-28T15:46:19.448Z</time></trkpt><trkpt lat="40.9310662" lon="14.270504"><ele>54.0</ele><time>2026-04-28T15:46:22.537Z</time></trkpt><trkpt lat="40.9311492" lon="14.2704931"><ele>54.0</ele><time>2026-04-28T15:46:26.576Z</time></trkpt><trkpt lat="40.9312293" lon="14.2704815"><ele>54.0</ele><time>2026-04-28T15:46:30.551Z</time></trkpt><trkpt lat="40.9313045" lon="14.2704411"><ele>54.0</ele><time>2026-04-28T15:46:34.537Z</time></trkpt><trkpt lat="40.931367" lon="14.2705335"><ele>54.0</ele><time>2026-04-28T15:46:36.572Z</time></trkpt><trkpt lat="40.9314242" lon="14.2705703"><ele>54.0</ele><time>2026-04-28T15:46:38.47Z</time></trkpt><trkpt lat="40.9314901" lon="14.2705685"><ele>54.0</ele><time>2026-04-28T15:46:41.417Z</time></trkpt><trkpt lat="40.9315736" lon="14.2705814"><ele>54.0</ele><time>2026-04-28T15:46:45.572Z</time></trkpt><trkpt lat="40.9316217" lon="14.2704973"><ele>54.0</ele><time>2026-04-28T15:46:49.465Z</time></trkpt><trkpt lat="40.9316945" lon="14.2704515"><ele>54.0</ele><time>2026-04-28T15:46:53.485Z</time></trkpt><trkpt lat="40.9317719" lon="14.2704851"><ele>54.0</ele><time>2026-04-28T15:46:56.555Z</time></trkpt><trkpt lat="40.9318337" lon="14.2704567"><ele>54.0</ele><time>2026-04-28T15:46:59.387Z</time></trkpt><trkpt lat="40.9319175" lon="14.2704887"><ele>54.0</ele><time>2026-04-28T15:47:02.514Z</time></trkpt><trkpt lat="40.9319525" lon="14.2705737"><ele>54.0</ele><time>2026-04-28T15:47:05.545Z</time></trkpt><trkpt lat="40.9320303" lon="14.2705681"><ele>53.666666666666664</ele><time>2026-04-28T15:47:08.493Z</time></trkpt><trkpt lat="40.9320984" lon="14.2705141"><ele>53.33333333333333</ele><time>2026-04-28T15:47:11.543Z</time></trkpt><trkpt lat="40.9321756" lon="14.2705005"><ele>53.0</ele><time>2026-04-28T15:47:15.542Z</time></trkpt><trkpt lat="40.9322495" lon="14.2704751"><ele>52.666666666666664</ele><time>2026-04-28T15:47:18.553Z</time></trkpt><trkpt lat="40.9323247" lon="14.2704552"><ele>52.33333333333333</ele><time>2026-04-28T15:47:21.576Z</time></trkpt><trkpt lat="40.9323887" lon="14.2703877"><ele>52.0</ele><time>2026-04-28T15:47:24.556Z</time></trkpt><trkpt lat="40.9324735" lon="14.2703735"><ele>51.99999999999999</ele><time>2026-04-28T15:47:27.462Z</time></trkpt><trkpt lat="40.9325474" lon="14.2703348"><ele>52.0</ele><time>2026-04-28T15:47:30.529Z</time></trkpt><trkpt lat="40.9326199" lon="14.2703151"><ele>52.0</ele><time>2026-04-28T15:47:33.558Z</time></trkpt><trkpt lat="40.9327224" lon="14.2702843"><ele>52.0</ele><time>2026-04-28T15:47:39.512Z</time></trkpt><trkpt lat="40.9327629" lon="14.2702195"><ele>51.99999999999999</ele><time>2026-04-28T15:47:41.475Z</time></trkpt><trkpt lat="40.9327816" lon="14.2701277"><ele>52.0</ele><time>2026-04-28T15:47:46.505Z</time></trkpt><trkpt lat="40.9328727" lon="14.2701591"><ele>52.166666666666664</ele><time>2026-04-28T15:47:47.414Z</time></trkpt><trkpt lat="40.9329439" lon="14.2701361"><ele>52.33333333333333</ele><time>2026-04-28T15:47:49.514Z</time></trkpt><trkpt lat="40.932986" lon="14.2700375"><ele>52.5</ele><time>2026-04-28T15:47:55.592Z</time></trkpt><trkpt lat="40.9330558" lon="14.2700057"><ele>52.66666666666667</ele><time>2026-04-28T15:47:57.767Z</time></trkpt><trkpt lat="40.9331353" lon="14.2700058"><ele>52.833333333333336</ele><time>2026-04-28T15:47:59.987Z</time></trkpt><trkpt lat="40.9332168" lon="14.2700017"><ele>53.0</ele><time>2026-04-28T15:48:02.208Z</time></trkpt><trkpt lat="40.9332957" lon="14.2699697"><ele>53.0</ele><time>2026-04-28T15:48:05.565Z</time></trkpt><trkpt lat="40.9333761" lon="14.2699521"><ele>53.0</ele><time>2026-04-28T15:48:09.496Z</time></trkpt><trkpt lat="40.933423" lon="14.2698909"><ele>53.0</ele><time>2026-04-28T15:48:12.525Z</time></trkpt><trkpt lat="40.9334924" lon="14.2698626"><ele>53.0</ele><time>2026-04-28T15:48:15.578Z</time></trkpt><trkpt lat="40.9335547" lon="14.269826"><ele>53.0</ele><time>2026-04-28T15:48:19.471Z</time></trkpt><trkpt lat="40.9336313" lon="14.2697976"><ele>53.0</ele><time>2026-04-28T15:48:22.499Z</time></trkpt><trkpt lat="40.9337025" lon="14.2697503"><ele>53.0</ele><time>2026-04-28T15:48:25.581Z</time></trkpt><trkpt lat="40.9337555" lon="14.2696736"><ele>52.833333333333336</ele><time>2026-04-28T15:48:29.486Z</time></trkpt><trkpt lat="40.9338276" lon="14.26965"><ele>52.66666666666667</ele><time>2026-04-28T15:48:32.575Z</time></trkpt><trkpt lat="40.9338442" lon="14.2695511"><ele>52.5</ele><time>2026-04-28T15:48:36.512Z</time></trkpt><trkpt lat="40.9338526" lon="14.269458"><ele>52.33333333333333</ele><time>2026-04-28T15:48:42.509Z</time></trkpt><trkpt lat="40.9339372" lon="14.2693872"><ele>52.166666666666664</ele><time>2026-04-28T15:48:44.569Z</time></trkpt><trkpt lat="40.9340018" lon="14.2693597"><ele>52.0</ele><time>2026-04-28T15:48:47.475Z</time></trkpt><trkpt lat="40.9340734" lon="14.2693442"><ele>51.99999999999999</ele><time>2026-04-28T15:48:50.401Z</time></trkpt><trkpt lat="40.9341561" lon="14.2693471"><ele>52.0</ele><time>2026-04-28T15:48:54.563Z</time></trkpt><trkpt lat="40.9342044" lon="14.2692694"><ele>52.0</ele><time>2026-04-28T15:48:57.572Z</time></trkpt><trkpt lat="40.9342583" lon="14.2692077"><ele>52.0</ele><time>2026-04-28T15:49:00.539Z</time></trkpt><trkpt lat="40.9343207" lon="14.2691703"><ele>51.99999999999999</ele><time>2026-04-28T15:49:03.564Z</time></trkpt><trkpt lat="40.9344027" lon="14.2691452"><ele>52.0</ele><time>2026-04-28T15:49:08.475Z</time></trkpt><trkpt lat="40.9344766" lon="14.2691324"><ele>52.166666666666664</ele><time>2026-04-28T15:49:10.579Z</time></trkpt><trkpt lat="40.9345435" lon="14.2690948"><ele>52.33333333333333</ele><time>2026-04-28T15:49:14.552Z</time></trkpt><trkpt lat="40.9345756" lon="14.2689767"><ele>52.5</ele><time>2026-04-28T15:49:18.489Z</time></trkpt><trkpt lat="40.9346151" lon="14.2688992"><ele>52.66666666666667</ele><time>2026-04-28T15:49:20.453Z</time></trkpt><trkpt lat="40.9346522" lon="14.2688096"><ele>52.833333333333336</ele><time>2026-04-28T15:49:23.536Z</time></trkpt><trkpt lat="40.9346556" lon="14.2687214"><ele>53.0</ele><time>2026-04-28T15:49:26.463Z</time></trkpt><trkpt lat="40.9346751" lon="14.2686193"><ele>53.00000000000001</ele><time>2026-04-28T15:49:30.502Z</time></trkpt><trkpt lat="40.9347085" lon="14.2685316"><ele>53.0</ele><time>2026-04-28T15:49:34.582Z</time></trkpt><trkpt lat="40.9346309" lon="14.26841"><ele>53.0</ele><time>2026-04-28T15:49:37.44Z</time></trkpt><trkpt lat="40.9345829" lon="14.2683543"><ele>53.0</ele><time>2026-04-28T15:49:41.504Z</time></trkpt><trkpt lat="40.9345707" lon="14.268209"><ele>53.00000000000001</ele><time>2026-04-28T15:49:43.524Z</time></trkpt><trkpt lat="40.9345713" lon="14.2681138"><ele>53.0</ele><time>2026-04-28T15:49:47.562Z</time></trkpt><trkpt lat="40.9345376" lon="14.2680091"><ele>53.0</ele><time>2026-04-28T15:49:52.563Z</time></trkpt><trkpt lat="40.9345024" lon="14.2679078"><ele>53.0</ele><time>2026-04-28T15:49:54.44Z</time></trkpt><trkpt lat="40.9344983" lon="14.2678152"><ele>53.0</ele><time>2026-04-28T15:49:57.486Z</time></trkpt><trkpt lat="40.9344708" lon="14.2677251"><ele>53.0</ele><time>2026-04-28T15:50:02.354Z</time></trkpt><trkpt lat="40.9344375" lon="14.2676406"><ele>53.0</ele><time>2026-04-28T15:50:04.52Z</time></trkpt><trkpt lat="40.9344495" lon="14.2675506"><ele>53.0</ele><time>2026-04-28T15:50:08.457Z</time></trkpt><trkpt lat="40.9344447" lon="14.2674616"><ele>53.0</ele><time>2026-04-28T15:50:13.436Z</time></trkpt><trkpt lat="40.934399" lon="14.26738"><ele>53.0</ele><time>2026-04-28T15:50:16.534Z</time></trkpt><trkpt lat="40.934404" lon="14.2672914"><ele>53.0</ele><time>2026-04-28T15:50:20.57Z</time></trkpt><trkpt lat="40.9344541" lon="14.2672339"><ele>53.0</ele><time>2026-04-28T15:50:25.517Z</time></trkpt><trkpt lat="40.9345228" lon="14.2672469"><ele>53.0</ele><time>2026-04-28T15:50:29.555Z</time></trkpt><trkpt lat="40.9345848" lon="14.2672694"><ele>53.0</ele><time>2026-04-28T15:50:32.483Z</time></trkpt><trkpt lat="40.9342661" lon="14.2667809"><ele>53.16666666666667</ele><time>2026-04-28T15:50:41.467Z</time></trkpt><trkpt lat="40.9342242" lon="14.2666524"><ele>53.333333333333336</ele><time>2026-04-28T15:50:43.55Z</time></trkpt><trkpt lat="40.9342064" lon="14.2665534"><ele>53.5</ele><time>2026-04-28T15:50:46.439Z</time></trkpt><trkpt lat="40.9341816" lon="14.2664614"><ele>53.66666666666667</ele><time>2026-04-28T15:50:49.543Z</time></trkpt><trkpt lat="40.934159" lon="14.2663767"><ele>53.833333333333336</ele><time>2026-04-28T15:50:52.572Z</time></trkpt><trkpt lat="40.934144" lon="14.2662875"><ele>54.0</ele><time>2026-04-28T15:50:55.492Z</time></trkpt><trkpt lat="40.9341371" lon="14.2661969"><ele>54.333333333333336</ele><time>2026-04-28T15:50:58.529Z</time></trkpt><trkpt lat="40.9340755" lon="14.2661394"><ele>54.66666666666667</ele><time>2026-04-28T15:51:01.584Z</time></trkpt><trkpt lat="40.9339986" lon="14.2661422"><ele>55.0</ele><time>2026-04-28T15:51:04.544Z</time></trkpt><trkpt lat="40.9339385" lon="14.2661767"><ele>55.333333333333336</ele><time>2026-04-28T15:51:06.551Z</time></trkpt><trkpt lat="40.9338827" lon="14.2662224"><ele>55.66666666666667</ele><time>2026-04-28T15:51:09.572Z</time></trkpt><trkpt lat="40.9337971" lon="14.2662092"><ele>56.0</ele><time>2026-04-28T15:51:12.618Z</time></trkpt><trkpt lat="40.9337311" lon="14.2662887"><ele>56.00000000000001</ele><time>2026-04-28T15:51:15.815Z</time></trkpt><trkpt lat="40.9336755" lon="14.2663498"><ele>56.0</ele><time>2026-04-28T15:51:19.087Z</time></trkpt><trkpt lat="40.9336313" lon="14.2664401"><ele>56.0</ele><time>2026-04-28T15:51:22.387Z</time></trkpt><trkpt lat="40.9335823" lon="14.2664947"><ele>56.0</ele><time>2026-04-28T15:51:24.487Z</time></trkpt><trkpt lat="40.9335174" lon="14.2664519"><ele>56.00000000000001</ele><time>2026-04-28T15:51:25.558Z</time></trkpt><trkpt lat="40.9334227" lon="14.2664272"><ele>56.0</ele><time>2026-04-28T15:51:27.542Z</time></trkpt><trkpt lat="40.933346" lon="14.2664634"><ele>55.66666666666667</ele><time>2026-04-28T15:51:30.463Z</time></trkpt><trkpt lat="40.9333065" lon="14.2665613"><ele>55.333333333333336</ele><time>2026-04-28T15:51:34.528Z</time></trkpt><trkpt lat="40.9333109" lon="14.2666611"><ele>55.0</ele><time>2026-04-28T15:51:38.466Z</time></trkpt><trkpt lat="40.9332837" lon="14.2667516"><ele>54.66666666666667</ele><time>2026-04-28T15:51:41.494Z</time></trkpt><trkpt lat="40.9332829" lon="14.2668364"><ele>54.333333333333336</ele><time>2026-04-28T15:51:44.485Z</time></trkpt><trkpt lat="40.9332126" lon="14.2667837"><ele>54.0</ele><time>2026-04-28T15:51:46.562Z</time></trkpt><trkpt lat="40.9331518" lon="14.2667022"><ele>54.0</ele><time>2026-04-28T15:51:48.402Z</time></trkpt><trkpt lat="40.9330749" lon="14.2666507"><ele>54.0</ele><time>2026-04-28T15:51:51.549Z</time></trkpt><trkpt lat="40.9329984" lon="14.266653"><ele>54.0</ele><time>2026-04-28T15:51:54.496Z</time></trkpt><trkpt lat="40.9329345" lon="14.2667045"><ele>54.0</ele><time>2026-04-28T15:51:57.451Z</time></trkpt><trkpt lat="40.9328745" lon="14.2667496"><ele>54.0</ele><time>2026-04-28T15:52:00.514Z</time></trkpt><trkpt lat="40.9327913" lon="14.2667617"><ele>54.0</ele><time>2026-04-28T15:52:03.546Z</time></trkpt><trkpt lat="40.9327206" lon="14.2668183"><ele>54.0</ele><time>2026-04-28T15:52:07.483Z</time></trkpt><trkpt lat="40.9326587" lon="14.2668941"><ele>54.0</ele><time>2026-04-28T15:52:11.558Z</time></trkpt><trkpt lat="40.9326063" lon="14.2668194"><ele>54.0</ele><time>2026-04-28T15:52:14.518Z</time></trkpt><trkpt lat="40.9325484" lon="14.2667529"><ele>54.0</ele><time>2026-04-28T15:52:18.564Z</time></trkpt><trkpt lat="40.9324848" lon="14.2667819"><ele>54.0</ele><time>2026-04-28T15:52:21.506Z</time></trkpt><trkpt lat="40.9324464" lon="14.2668888"><ele>54.0</ele><time>2026-04-28T15:52:23.49Z</time></trkpt><trkpt lat="40.9323995" lon="14.2669851"><ele>54.42857142857143</ele><time>2026-04-28T15:52:26.519Z</time></trkpt><trkpt lat="40.9323373" lon="14.2670372"><ele>54.857142857142854</ele><time>2026-04-28T15:52:28.559Z</time></trkpt><trkpt lat="40.9322736" lon="14.2670818"><ele>55.285714285714285</ele><time>2026-04-28T15:52:31.567Z</time></trkpt><trkpt lat="40.932204" lon="14.267136"><ele>55.71428571428571</ele><time>2026-04-28T15:52:35.544Z</time></trkpt><trkpt lat="40.9321456" lon="14.2671913"><ele>56.14285714285714</ele><time>2026-04-28T15:52:38.545Z</time></trkpt><trkpt lat="40.9320783" lon="14.2671322"><ele>56.57142857142857</ele><time>2026-04-28T15:52:41.474Z</time></trkpt><trkpt lat="40.9320151" lon="14.2671711"><ele>57.0</ele><time>2026-04-28T15:52:43.5Z</time></trkpt><trkpt lat="40.932021" lon="14.2672569"><ele>57.0</ele><time>2026-04-28T15:52:47.582Z</time></trkpt><trkpt lat="40.9319227" lon="14.267215"><ele>57.0</ele><time>2026-04-28T15:52:48.672Z</time></trkpt><trkpt lat="40.9318631" lon="14.2672517"><ele>57.0</ele><time>2026-04-28T15:52:50.833Z</time></trkpt><trkpt lat="40.9318149" lon="14.2673216"><ele>57.0</ele><time>2026-04-28T15:52:54.113Z</time></trkpt><trkpt lat="40.9317558" lon="14.2673986"><ele>57.0</ele><time>2026-04-28T15:52:57.285Z</time></trkpt><trkpt lat="40.9316862" lon="14.2674785"><ele>57.0</ele><time>2026-04-28T15:53:00.575Z</time></trkpt><trkpt lat="40.9316297" lon="14.2675222"><ele>56.833333333333336</ele><time>2026-04-28T15:53:05.509Z</time></trkpt><trkpt lat="40.9315544" lon="14.2675554"><ele>56.66666666666667</ele><time>2026-04-28T15:53:07.462Z</time></trkpt><trkpt lat="40.9315079" lon="14.2676225"><ele>56.5</ele><time>2026-04-28T15:53:10.496Z</time></trkpt><trkpt lat="40.9314255" lon="14.2676336"><ele>56.333333333333336</ele><time>2026-04-28T15:53:13.544Z</time></trkpt><trkpt lat="40.9313739" lon="14.2676898"><ele>56.16666666666667</ele><time>2026-04-28T15:53:16.548Z</time></trkpt><trkpt lat="40.931325" lon="14.2677573"><ele>56.0</ele><time>2026-04-28T15:53:20.464Z</time></trkpt><trkpt lat="40.9312579" lon="14.2676914"><ele>56.0</ele><time>2026-04-28T15:53:22.49Z</time></trkpt><trkpt lat="40.9311953" lon="14.2677035"><ele>56.0</ele><time>2026-04-28T15:53:24.509Z</time></trkpt><trkpt lat="40.9311352" lon="14.2677358"><ele>56.0</ele><time>2026-04-28T15:53:27.572Z</time></trkpt><trkpt lat="40.9310686" lon="14.2677606"><ele>56.0</ele><time>2026-04-28T15:53:30.568Z</time></trkpt><trkpt lat="40.9310012" lon="14.2677653"><ele>56.0</ele><time>2026-04-28T15:53:33.516Z</time></trkpt><trkpt lat="40.9309271" lon="14.2677172"><ele>56.0</ele><time>2026-04-28T15:53:36.564Z</time></trkpt><trkpt lat="40.930863" lon="14.2677159"><ele>56.0</ele><time>2026-04-28T15:53:38.445Z</time></trkpt><trkpt lat="40.930778" lon="14.2677553"><ele>56.00000000000001</ele><time>2026-04-28T15:53:41.559Z</time></trkpt><trkpt lat="40.9307051" lon="14.26778"><ele>56.0</ele><time>2026-04-28T15:53:44.5Z</time></trkpt><trkpt lat="40.9306154" lon="14.2678294"><ele>56.0</ele><time>2026-04-28T15:53:49.401Z</time></trkpt><trkpt lat="40.9305464" lon="14.2678086"><ele>56.0</ele><time>2026-04-28T15:53:51.467Z</time></trkpt><trkpt lat="40.9304738" lon="14.2678307"><ele>56.00000000000001</ele><time>2026-04-28T15:53:54.499Z</time></trkpt><trkpt lat="40.9303636" lon="14.2678185"><ele>56.0</ele><time>2026-04-28T15:54:01.523Z</time></trkpt><trkpt lat="40.9302686" lon="14.2678171"><ele>56.0</ele><time>2026-04-28T15:54:03.433Z</time></trkpt><trkpt lat="40.9302053" lon="14.2678415"><ele>56.0</ele><time>2026-04-28T15:54:06.571Z</time></trkpt><trkpt lat="40.9301365" lon="14.2678312"><ele>56.0</ele><time>2026-04-28T15:54:09.221Z</time></trkpt><trkpt lat="40.9300587" lon="14.2678167"><ele>56.0</ele><time>2026-04-28T15:54:12.471Z</time></trkpt><trkpt lat="40.929986" lon="14.2678008"><ele>56.0</ele><time>2026-04-28T15:54:15.537Z</time></trkpt><trkpt lat="40.9299199" lon="14.2678289"><ele>56.0</ele><time>2026-04-28T15:54:18.457Z</time></trkpt><trkpt lat="40.9298477" lon="14.2678614"><ele>56.0</ele><time>2026-04-28T15:54:21.658Z</time></trkpt><trkpt lat="40.9297623" lon="14.2678527"><ele>56.0</ele><time>2026-04-28T15:54:27.019Z</time></trkpt><trkpt lat="40.9296993" lon="14.2678461"><ele>56.0</ele><time>2026-04-28T15:54:28.145Z</time></trkpt><trkpt lat="40.9296312" lon="14.2678495"><ele>56.0</ele><time>2026-04-28T15:54:30.252Z</time></trkpt><trkpt lat="40.9295517" lon="14.2678775"><ele>56.0</ele><time>2026-04-28T15:54:33.4Z</time></trkpt><trkpt lat="40.9294935" lon="14.2679108"><ele>56.0</ele><time>2026-04-28T15:54:35.53Z</time></trkpt><trkpt lat="40.9294223" lon="14.2679533"><ele>56.0</ele><time>2026-04-28T15:54:38.535Z</time></trkpt><trkpt lat="40.9293623" lon="14.2680135"><ele>56.0</ele><time>2026-04-28T15:54:41.582Z</time></trkpt><trkpt lat="40.9293432" lon="14.2681281"><ele>56.00000000000001</ele><time>2026-04-28T15:54:44.426Z</time></trkpt><trkpt lat="40.9293726" lon="14.2682202"><ele>56.0</ele><time>2026-04-28T15:54:47.52Z</time></trkpt><trkpt lat="40.9293756" lon="14.2683383"><ele>56.0</ele><time>2026-04-28T15:54:50.458Z</time></trkpt><trkpt lat="40.9293883" lon="14.2684475"><ele>56.0</ele><time>2026-04-28T15:54:53.562Z</time></trkpt><trkpt lat="40.9294107" lon="14.2685417"><ele>56.00000000000001</ele><time>2026-04-28T15:54:56.516Z</time></trkpt><trkpt lat="40.9294402" lon="14.2686405"><ele>56.0</ele><time>2026-04-28T15:54:59.487Z</time></trkpt><trkpt lat="40.92946" lon="14.2687464"><ele>56.00000000000001</ele><time>2026-04-28T15:55:02.533Z</time></trkpt><trkpt lat="40.9294967" lon="14.268838"><ele>56.0</ele><time>2026-04-28T15:55:05.414Z</time></trkpt><trkpt lat="40.9295608" lon="14.2689224"><ele>56.0</ele><time>2026-04-28T15:55:08.574Z</time></trkpt><trkpt lat="40.9295254" lon="14.2690305"><ele>56.0</ele><time>2026-04-28T15:55:12.734Z</time></trkpt><trkpt lat="40.9296213" lon="14.2691207"><ele>56.00000000000001</ele><time>2026-04-28T15:55:14.813Z</time></trkpt><trkpt lat="40.9296666" lon="14.2691975"><ele>56.0</ele><time>2026-04-28T15:55:16.958Z</time></trkpt><trkpt lat="40.9296788" lon="14.2692919"><ele>55.66666666666667</ele><time>2026-04-28T15:55:20.115Z</time></trkpt><trkpt lat="40.9297371" lon="14.2693573"><ele>55.333333333333336</ele><time>2026-04-28T15:55:24.315Z</time></trkpt><trkpt lat="40.9297312" lon="14.2694815"><ele>55.0</ele><time>2026-04-28T15:55:28.536Z</time></trkpt><trkpt lat="40.929759" lon="14.2695877"><ele>54.66666666666667</ele><time>2026-04-28T15:55:31.552Z</time></trkpt><trkpt lat="40.9297674" lon="14.2696746"><ele>54.333333333333336</ele><time>2026-04-28T15:55:34.463Z</time></trkpt><trkpt lat="40.9297707" lon="14.2697645"><ele>54.0</ele><time>2026-04-28T15:55:37.507Z</time></trkpt><trkpt lat="40.9297653" lon="14.2698623"><ele>53.833333333333336</ele><time>2026-04-28T15:55:41.545Z</time></trkpt><trkpt lat="40.9298157" lon="14.2699511"><ele>53.66666666666667</ele><time>2026-04-28T15:55:44.55Z</time></trkpt><trkpt lat="40.9298546" lon="14.2700336"><ele>53.5</ele><time>2026-04-28T15:55:46.492Z</time></trkpt><trkpt lat="40.92986" lon="14.2701405"><ele>53.333333333333336</ele><time>2026-04-28T15:55:50.531Z</time></trkpt><trkpt lat="40.9298724" lon="14.2702345"><ele>53.16666666666667</ele><time>2026-04-28T15:55:54.468Z</time></trkpt><trkpt lat="40.9299584" lon="14.2701965"><ele>53.0</ele><time>2026-04-28T15:55:55.602Z</time></trkpt><trkpt lat="40.930023" lon="14.2702177"><ele>53.16666666666667</ele><time>2026-04-28T15:55:58.57Z</time></trkpt><trkpt lat="40.9300977" lon="14.2702575"><ele>53.333333333333336</ele><time>2026-04-28T15:56:02.547Z</time></trkpt><trkpt lat="40.9301787" lon="14.2702841"><ele>53.5</ele><time>2026-04-28T15:56:06.542Z</time></trkpt><trkpt lat="40.9302684" lon="14.2702987"><ele>53.66666666666667</ele><time>2026-04-28T15:56:11.529Z</time></trkpt><trkpt lat="40.9303365" lon="14.2703707"><ele>53.833333333333336</ele><time>2026-04-28T15:56:13.548Z</time></trkpt><trkpt lat="40.9304171" lon="14.2704001"><ele>54.0</ele><time>2026-04-28T15:56:16.474Z</time></trkpt><trkpt lat="40.9304967" lon="14.2704182"><ele>54.0</ele><time>2026-04-28T15:56:20.522Z</time></trkpt><trkpt lat="40.930577" lon="14.2704096"><ele>54.0</ele><time>2026-04-28T15:56:25.51Z</time></trkpt><trkpt lat="40.9306433" lon="14.2704658"><ele>54.0</ele><time>2026-04-28T15:56:30.476Z</time></trkpt><trkpt lat="40.9307145" lon="14.2704544"><ele>54.0</ele><time>2026-04-28T15:56:33.398Z</time></trkpt><trkpt lat="40.9307719" lon="14.2704993"><ele>54.0</ele><time>2026-04-28T15:56:37.46Z</time></trkpt><trkpt lat="40.9308441" lon="14.2704967"><ele>54.0</ele><time>2026-04-28T15:56:41.499Z</time></trkpt><trkpt lat="40.9309172" lon="14.2705"><ele>54.0</ele><time>2026-04-28T15:56:45.476Z</time></trkpt><trkpt lat="40.9309044" lon="14.2704134"><ele>54.0</ele><time>2026-04-28T15:56:51.551Z</time></trkpt><trkpt lat="40.9309912" lon="14.2704468"><ele>54.0</ele><time>2026-04-28T15:56:52.501Z</time></trkpt><trkpt lat="40.9310569" lon="14.2704561"><ele>54.0</ele><time>2026-04-28T15:56:55.549Z</time></trkpt><trkpt lat="40.9311238" lon="14.2704728"><ele>54.0</ele><time>2026-04-28T15:57:02.533Z</time></trkpt><trkpt lat="40.9312005" lon="14.2704832"><ele>54.0</ele><time>2026-04-28T15:57:06.491Z</time></trkpt><trkpt lat="40.9312623" lon="14.2704641"><ele>54.0</ele><time>2026-04-28T15:57:10.529Z</time></trkpt><trkpt lat="40.9313285" lon="14.2704589"><ele>54.0</ele><time>2026-04-28T15:57:15.535Z</time></trkpt><trkpt lat="40.9313816" lon="14.2704138"><ele>54.0</ele><time>2026-04-28T15:57:21.462Z</time></trkpt><trkpt lat="40.9314333" lon="14.2704876"><ele>54.0</ele><time>2026-04-28T15:57:23.463Z</time></trkpt><trkpt lat="40.9315027" lon="14.2705066"><ele>54.0</ele><time>2026-04-28T15:57:26.53Z</time></trkpt><trkpt lat="40.931576" lon="14.2705218"><ele>54.0</ele><time>2026-04-28T15:57:30.533Z</time></trkpt><trkpt lat="40.9316478" lon="14.270512"><ele>54.0</ele><time>2026-04-28T15:57:34.572Z</time></trkpt><trkpt lat="40.9316856" lon="14.270441"><ele>54.0</ele><time>2026-04-28T15:57:38.527Z</time></trkpt><trkpt lat="40.9317003" lon="14.270352"><ele>54.0</ele><time>2026-04-28T15:57:42.465Z</time></trkpt><trkpt lat="40.9317675" lon="14.2703727"><ele>53.714285714285715</ele><time>2026-04-28T15:57:45.512Z</time></trkpt><trkpt lat="40.9318353" lon="14.2703575"><ele>53.42857142857143</ele><time>2026-04-28T15:57:49.549Z</time></trkpt><trkpt lat="40.9318905" lon="14.2704093"><ele>53.14285714285714</ele><time>2026-04-28T15:57:54.535Z</time></trkpt><trkpt lat="40.9319368" lon="14.2704697"><ele>52.85714285714286</ele><time>2026-04-28T15:58:00.501Z</time></trkpt><trkpt lat="40.9320039" lon="14.270453"><ele>52.57142857142858</ele><time>2026-04-28T15:58:09.494Z</time></trkpt><trkpt lat="40.9320833" lon="14.2704477"><ele>52.285714285714285</ele><time>2026-04-28T15:58:13.53Z</time></trkpt><trkpt lat="40.9321395" lon="14.2704966"><ele>52.0</ele><time>2026-04-28T15:58:16.579Z</time></trkpt><trkpt lat="40.9322102" lon="14.2704756"><ele>52.0</ele><time>2026-04-28T15:58:19.505Z</time></trkpt><trkpt lat="40.9322859" lon="14.2704668"><ele>52.0</ele><time>2026-04-28T15:58:23.445Z</time></trkpt><trkpt lat="40.9323556" lon="14.2704316"><ele>52.0</ele><time>2026-04-28T15:58:27.511Z</time></trkpt><trkpt lat="40.9324185" lon="14.270425"><ele>52.0</ele><time>2026-04-28T15:58:31.535Z</time></trkpt><trkpt lat="40.9324932" lon="14.2704106"><ele>52.0</ele><time>2026-04-28T15:58:36.5Z</time></trkpt><trkpt lat="40.9325644" lon="14.2703926"><ele>52.0</ele><time>2026-04-28T15:58:42.557Z</time></trkpt><trkpt lat="40.9326223" lon="14.270351"><ele>52.0</ele><time>2026-04-28T15:58:48.434Z</time></trkpt><trkpt lat="40.9326848" lon="14.2703324"><ele>52.14285714285714</ele><time>2026-04-28T15:58:54.546Z</time></trkpt><trkpt lat="40.9327535" lon="14.2703032"><ele>52.28571428571429</ele><time>2026-04-28T15:58:58.502Z</time></trkpt><trkpt lat="40.9328266" lon="14.2702924"><ele>52.42857142857143</ele><time>2026-04-28T15:59:02.55Z</time></trkpt><trkpt lat="40.9328842" lon="14.2702466"><ele>52.57142857142857</ele><time>2026-04-28T15:59:04.507Z</time></trkpt><trkpt lat="40.9329312" lon="14.2701816"><ele>52.71428571428571</ele><time>2026-04-28T15:59:07.554Z</time></trkpt><trkpt lat="40.9329983" lon="14.2701433"><ele>52.85714285714286</ele><time>2026-04-28T15:59:10.502Z</time></trkpt><trkpt lat="40.9330628" lon="14.270122"><ele>53.0</ele><time>2026-04-28T15:59:13.529Z</time></trkpt><trkpt lat="40.9331379" lon="14.2701305"><ele>53.0</ele><time>2026-04-28T15:59:19.503Z</time></trkpt><trkpt lat="40.9331783" lon="14.2700656"><ele>53.0</ele><time>2026-04-28T15:59:24.52Z</time></trkpt><trkpt lat="40.9332273" lon="14.2700041"><ele>53.0</ele><time>2026-04-28T15:59:30.544Z</time></trkpt><trkpt lat="40.9332881" lon="14.2699748"><ele>53.0</ele><time>2026-04-28T15:59:35.489Z</time></trkpt><trkpt lat="40.9333433" lon="14.269908"><ele>53.0</ele><time>2026-04-28T15:59:41.503Z</time></trkpt><trkpt lat="40.9334155" lon="14.269817"><ele>53.0</ele><time>2026-04-28T15:59:46.56Z</time></trkpt><trkpt lat="40.9334783" lon="14.2698632"><ele>53.0</ele><time>2026-04-28T15:59:48.477Z</time></trkpt><trkpt lat="40.9335417" lon="14.269855"><ele>53.0</ele><time>2026-04-28T15:59:51.516Z</time></trkpt><trkpt lat="40.9335977" lon="14.2698064"><ele>53.0</ele><time>2026-04-28T15:59:59.528Z</time></trkpt><trkpt lat="40.9336648" lon="14.2697986"><ele>53.0</ele><time>2026-04-28T16:00:02.529Z</time></trkpt><trkpt lat="40.9337259" lon="14.2697659"><ele>53.0</ele><time>2026-04-28T16:00:06.553Z</time></trkpt><trkpt lat="40.9337817" lon="14.2697197"><ele>53.0</ele><time>2026-04-28T16:00:09.5Z</time></trkpt><trkpt lat="40.9338444" lon="14.2696788"><ele>53.0</ele><time>2026-04-28T16:00:13.537Z</time></trkpt><trkpt lat="40.9338629" lon="14.2695746"><ele>53.0</ele><time>2026-04-28T16:00:16.565Z</time></trkpt><trkpt lat="40.9338688" lon="14.2694646"><ele>52.85714285714286</ele><time>2026-04-28T16:00:23.44Z</time></trkpt><trkpt lat="40.933904" lon="14.2693658"><ele>52.71428571428571</ele><time>2026-04-28T16:00:26.496Z</time></trkpt><trkpt lat="40.9339666" lon="14.2693066"><ele>52.57142857142857</ele><time>2026-04-28T16:00:34.528Z</time></trkpt><trkpt lat="40.9340372" lon="14.2692548"><ele>52.42857142857143</ele><time>2026-04-28T16:00:38.465Z</time></trkpt><trkpt lat="40.9340983" lon="14.269281"><ele>52.28571428571429</ele><time>2026-04-28T16:00:40.483Z</time></trkpt><trkpt lat="40.9341623" lon="14.2693177"><ele>52.14285714285714</ele><time>2026-04-28T16:00:43.511Z</time></trkpt><trkpt lat="40.934224" lon="14.2693397"><ele>52.0</ele><time>2026-04-28T16:00:48.475Z</time></trkpt><trkpt lat="40.9342645" lon="14.269263"><ele>52.14285714285714</ele><time>2026-04-28T16:00:54.491Z</time></trkpt><trkpt lat="40.9342774" lon="14.2691779"><ele>52.28571428571429</ele><time>2026-04-28T16:01:00.486Z</time></trkpt><trkpt lat="40.9343297" lon="14.2691013"><ele>52.42857142857143</ele><time>2026-04-28T16:01:05.551Z</time></trkpt><trkpt lat="40.9344085" lon="14.2690397"><ele>52.57142857142857</ele><time>2026-04-28T16:01:10.516Z</time></trkpt><trkpt lat="40.9344834" lon="14.2690811"><ele>52.71428571428571</ele><time>2026-04-28T16:01:13.544Z</time></trkpt><trkpt lat="40.9345468" lon="14.2690505"><ele>52.85714285714286</ele><time>2026-04-28T16:01:16.491Z</time></trkpt><trkpt lat="40.9345722" lon="14.2689704"><ele>53.0</ele><time>2026-04-28T16:01:19.52Z</time></trkpt><trkpt lat="40.9346197" lon="14.2689004"><ele>53.0</ele><time>2026-04-28T16:01:24.566Z</time></trkpt><trkpt lat="40.9346453" lon="14.2688234"><ele>53.0</ele><time>2026-04-28T16:01:28.5Z</time></trkpt><trkpt lat="40.934656" lon="14.26873"><ele>53.0</ele><time>2026-04-28T16:01:32.537Z</time></trkpt><trkpt lat="40.9346626" lon="14.2686286"><ele>53.0</ele><time>2026-04-28T16:01:36.575Z</time></trkpt><trkpt lat="40.9346643" lon="14.2685308"><ele>53.0</ele><time>2026-04-28T16:01:40.511Z</time></trkpt><trkpt lat="40.9346457" lon="14.2684353"><ele>53.0</ele><time>2026-04-28T16:01:45.557Z</time></trkpt><trkpt lat="40.9346074" lon="14.2683576"><ele>53.0</ele><time>2026-04-28T16:01:51.526Z</time></trkpt><trkpt lat="40.9345548" lon="14.2683012"><ele>53.0</ele><time>2026-04-28T16:01:56.559Z</time></trkpt><trkpt lat="40.9345441" lon="14.26816"><ele>53.0</ele><time>2026-04-28T16:01:59.439Z</time></trkpt><trkpt lat="40.9345357" lon="14.2680697"><ele>53.0</ele><time>2026-04-28T16:02:02.439Z</time></trkpt><trkpt lat="40.9345124" lon="14.2679829"><ele>53.0</ele><time>2026-04-28T16:02:06.44Z</time></trkpt><trkpt lat="40.934445" lon="14.2677835"><ele>53.0</ele><time>2026-04-28T16:02:19.479Z</time></trkpt><trkpt lat="40.9344327" lon="14.2676997"><ele>53.0</ele><time>2026-04-28T16:02:24.524Z</time></trkpt><trkpt lat="40.9344125" lon="14.2676105"><ele>53.0</ele><time>2026-04-28T16:02:29.569Z</time></trkpt><trkpt lat="40.9344024" lon="14.2675239"><ele>53.0</ele><time>2026-04-28T16:02:33.505Z</time></trkpt><trkpt lat="40.9343737" lon="14.2674361"><ele>53.0</ele><time>2026-04-28T16:02:37.541Z</time></trkpt><trkpt lat="40.9343521" lon="14.2673494"><ele>53.0</ele><time>2026-04-28T16:02:41.478Z</time></trkpt><trkpt lat="40.9343266" lon="14.2672675"><ele>53.0</ele><time>2026-04-28T16:02:49.473Z</time></trkpt><trkpt lat="40.9342953" lon="14.2671891"><ele>53.0</ele><time>2026-04-28T16:02:54.494Z</time></trkpt><trkpt lat="40.9342908" lon="14.2671046"><ele>53.142857142857146</ele><time>2026-04-28T16:02:58.531Z</time></trkpt><trkpt lat="40.9342735" lon="14.2670097"><ele>53.285714285714285</ele><time>2026-04-28T16:03:02.466Z</time></trkpt><trkpt lat="40.9342639" lon="14.2669232"><ele>53.42857142857143</ele><time>2026-04-28T16:03:06.504Z</time></trkpt><trkpt lat="40.9342529" lon="14.2668275"><ele>53.57142857142857</ele><time>2026-04-28T16:03:11.549Z</time></trkpt><trkpt lat="40.9342232" lon="14.2667388"><ele>53.71428571428571</ele><time>2026-04-28T16:03:16.393Z</time></trkpt><trkpt lat="40.9342034" lon="14.2666542"><ele>53.857142857142854</ele><time>2026-04-28T16:03:20.53Z</time></trkpt><trkpt lat="40.9341579" lon="14.2665951"><ele>54.0</ele><time>2026-04-28T16:03:24.566Z</time></trkpt><trkpt lat="40.9341364" lon="14.2664943"><ele>54.285714285714285</ele><time>2026-04-28T16:03:28.502Z</time></trkpt><trkpt lat="40.934129" lon="14.2663913"><ele>54.57142857142857</ele><time>2026-04-28T16:03:32.539Z</time></trkpt><trkpt lat="40.9341115" lon="14.2663075"><ele>54.85714285714286</ele><time>2026-04-28T16:03:36.576Z</time></trkpt><trkpt lat="40.9340955" lon="14.2662136"><ele>55.14285714285714</ele><time>2026-04-28T16:03:41.55Z</time></trkpt><trkpt lat="40.9340332" lon="14.2661819"><ele>55.42857142857143</ele><time>2026-04-28T16:03:48.524Z</time></trkpt><trkpt lat="40.9339795" lon="14.2661201"><ele>55.714285714285715</ele><time>2026-04-28T16:03:53.488Z</time></trkpt><trkpt lat="40.9339104" lon="14.2661312"><ele>56.0</ele><time>2026-04-28T16:03:58.483Z</time></trkpt><trkpt lat="40.9338468" lon="14.2661658"><ele>56.0</ele><time>2026-04-28T16:04:02.521Z</time></trkpt><trkpt lat="40.9337772" lon="14.2662133"><ele>56.0</ele><time>2026-04-28T16:04:08.475Z</time></trkpt><trkpt lat="40.9337269" lon="14.2662642"><ele>56.0</ele><time>2026-04-28T16:04:12.511Z</time></trkpt><trkpt lat="40.9336449" lon="14.2662851"><ele>56.0</ele><time>2026-04-28T16:04:16.548Z</time></trkpt><trkpt lat="40.9335733" lon="14.266304"><ele>56.0</ele><time>2026-04-28T16:04:19.475Z</time></trkpt><trkpt lat="40.9335081" lon="14.2663401"><ele>56.0</ele><time>2026-04-28T16:04:24.522Z</time></trkpt><trkpt lat="40.9334486" lon="14.2663729"><ele>56.0</ele><time>2026-04-28T16:04:30.476Z</time></trkpt><trkpt lat="40.9333889" lon="14.2664205"><ele>55.714285714285715</ele><time>2026-04-28T16:04:34.513Z</time></trkpt><trkpt lat="40.9333286" lon="14.266465"><ele>55.42857142857143</ele><time>2026-04-28T16:04:38.549Z</time></trkpt><trkpt lat="40.9333129" lon="14.266549"><ele>55.14285714285714</ele><time>2026-04-28T16:04:44.514Z</time></trkpt><trkpt lat="40.93325" lon="14.2665645"><ele>54.85714285714286</ele><time>2026-04-28T16:04:47.542Z</time></trkpt><trkpt lat="40.93321" lon="14.2666614"><ele>54.57142857142857</ele><time>2026-04-28T16:04:51.579Z</time></trkpt><trkpt lat="40.9332406" lon="14.2667456"><ele>54.285714285714285</ele><time>2026-04-28T16:04:54.507Z</time></trkpt><trkpt lat="40.9331774" lon="14.266727"><ele>54.0</ele><time>2026-04-28T16:05:06.548Z</time></trkpt><trkpt lat="40.9331558" lon="14.2666427"><ele>54.0</ele><time>2026-04-28T16:05:10.483Z</time></trkpt><trkpt lat="40.9330483" lon="14.2666588"><ele>54.0</ele><time>2026-04-28T16:05:14.562Z</time></trkpt><trkpt lat="40.9329738" lon="14.2666638"><ele>54.0</ele><time>2026-04-28T16:05:18.538Z</time></trkpt><trkpt lat="40.9329074" lon="14.2667104"><ele>54.0</ele><time>2026-04-28T16:05:23.485Z</time></trkpt><trkpt lat="40.9328311" lon="14.2667299"><ele>54.0</ele><time>2026-04-28T16:05:27.523Z</time></trkpt><trkpt lat="40.9327642" lon="14.2667508"><ele>54.0</ele><time>2026-04-28T16:05:31.56Z</time></trkpt><trkpt lat="40.9327115" lon="14.266809"><ele>54.0</ele><time>2026-04-28T16:05:37.516Z</time></trkpt><trkpt lat="40.9326741" lon="14.2668785"><ele>54.0</ele><time>2026-04-28T16:05:42.461Z</time></trkpt><trkpt lat="40.932603" lon="14.2669142"><ele>54.0</ele><time>2026-04-28T16:05:48.526Z</time></trkpt><trkpt lat="40.9325356" lon="14.2669134"><ele>54.0</ele><time>2026-04-28T16:05:52.565Z</time></trkpt><trkpt lat="40.9324653" lon="14.2669259"><ele>54.0</ele><time>2026-04-28T16:05:58.519Z</time></trkpt><trkpt lat="40.9324116" lon="14.2669781"><ele>54.0</ele><time>2026-04-28T16:06:02.557Z</time></trkpt><trkpt lat="40.9323417" lon="14.267"><ele>54.0</ele><time>2026-04-28T16:06:06.495Z</time></trkpt><trkpt lat="40.9322835" lon="14.2670446"><ele>54.42857142857143</ele><time>2026-04-28T16:06:10.532Z</time></trkpt><trkpt lat="40.9322162" lon="14.267068"><ele>54.857142857142854</ele><time>2026-04-28T16:06:15.477Z</time></trkpt><trkpt lat="40.9321521" lon="14.2670764"><ele>55.285714285714285</ele><time>2026-04-28T16:06:20.525Z</time></trkpt><trkpt lat="40.932085" lon="14.2671219"><ele>55.71428571428571</ele><time>2026-04-28T16:06:25.47Z</time></trkpt><trkpt lat="40.9320045" lon="14.2671486"><ele>56.14285714285714</ele><time>2026-04-28T16:06:29.509Z</time></trkpt><trkpt lat="40.931943" lon="14.2671716"><ele>56.57142857142857</ele><time>2026-04-28T16:06:32.537Z</time></trkpt><trkpt lat="40.9318793" lon="14.2672094"><ele>57.0</ele><time>2026-04-28T16:06:36.576Z</time></trkpt><trkpt lat="40.9318139" lon="14.2672541"><ele>56.857142857142854</ele><time>2026-04-28T16:06:41.522Z</time></trkpt><trkpt lat="40.9317595" lon="14.2673218"><ele>56.71428571428571</ele><time>2026-04-28T16:06:47.478Z</time></trkpt><trkpt lat="40.9317165" lon="14.2673834"><ele>56.57142857142857</ele><time>2026-04-28T16:06:51.516Z</time></trkpt><trkpt lat="40.931667" lon="14.2674368"><ele>56.42857142857143</ele><time>2026-04-28T16:06:55.554Z</time></trkpt><trkpt lat="40.9316127" lon="14.2674798"><ele>56.285714285714285</ele><time>2026-04-28T16:06:59.491Z</time></trkpt><trkpt lat="40.9315561" lon="14.2675353"><ele>56.14285714285714</ele><time>2026-04-28T16:07:04.564Z</time></trkpt><trkpt lat="40.9315008" lon="14.2675827"><ele>56.0</ele><time>2026-04-28T16:07:09.486Z</time></trkpt><trkpt lat="40.9314507" lon="14.2676358"><ele>56.00000000000001</ele><time>2026-04-28T16:07:13.423Z</time></trkpt><trkpt lat="40.9313895" lon="14.2676713"><ele>56.0</ele><time>2026-04-28T16:07:17.562Z</time></trkpt><trkpt lat="40.9313173" lon="14.2676839"><ele>56.0</ele><time>2026-04-28T16:07:23.518Z</time></trkpt><trkpt lat="40.9312551" lon="14.267729"><ele>56.0</ele><time>2026-04-28T16:07:29.474Z</time></trkpt><trkpt lat="40.9311964" lon="14.2677676"><ele>56.00000000000001</ele><time>2026-04-28T16:07:33.514Z</time></trkpt><trkpt lat="40.9311689" lon="14.2678586"><ele>56.0</ele><time>2026-04-28T16:07:39.471Z</time></trkpt><trkpt lat="40.9310614" lon="14.2678312"><ele>56.0</ele><time>2026-04-28T16:07:43.51Z</time></trkpt><trkpt lat="40.9309966" lon="14.2677736"><ele>56.0</ele><time>2026-04-28T16:07:45.531Z</time></trkpt><trkpt lat="40.9309349" lon="14.2677567"><ele>56.0</ele><time>2026-04-28T16:07:48.56Z</time></trkpt><trkpt lat="40.9308737" lon="14.2677799"><ele>56.0</ele><time>2026-04-28T16:07:52.499Z</time></trkpt><trkpt lat="40.9308099" lon="14.267787"><ele>56.0</ele><time>2026-04-28T16:07:58.469Z</time></trkpt><trkpt lat="40.9307369" lon="14.2677831"><ele>56.0</ele><time>2026-04-28T16:08:03.484Z</time></trkpt><trkpt lat="40.9306689" lon="14.2677626"><ele>56.0</ele><time>2026-04-28T16:08:07.563Z</time></trkpt><trkpt lat="40.9305882" lon="14.2677803"><ele>56.0</ele><time>2026-04-28T16:08:11.542Z</time></trkpt><trkpt lat="40.9305232" lon="14.2678004"><ele>56.0</ele><time>2026-04-28T16:08:17.5Z</time></trkpt><trkpt lat="40.9304599" lon="14.2677741"><ele>56.0</ele><time>2026-04-28T16:08:22.549Z</time></trkpt><trkpt lat="40.9303935" lon="14.2678013"><ele>56.0</ele><time>2026-04-28T16:08:26.531Z</time></trkpt><trkpt lat="40.9303203" lon="14.2678081"><ele>56.0</ele><time>2026-04-28T16:08:32.546Z</time></trkpt><trkpt lat="40.9302565" lon="14.2678159"><ele>56.0</ele><time>2026-04-28T16:08:36.483Z</time></trkpt><trkpt lat="40.930181" lon="14.2678466"><ele>56.0</ele><time>2026-04-28T16:08:40.522Z</time></trkpt><trkpt lat="40.9301184" lon="14.2678656"><ele>56.14285714285714</ele><time>2026-04-28T16:08:43.552Z</time></trkpt><trkpt lat="40.9300414" lon="14.2678432"><ele>56.285714285714285</ele><time>2026-04-28T16:08:47.491Z</time></trkpt><trkpt lat="40.9299741" lon="14.2678451"><ele>56.42857142857143</ele><time>2026-04-28T16:08:54.458Z</time></trkpt><trkpt lat="40.9298994" lon="14.2678654"><ele>56.57142857142857</ele><time>2026-04-28T16:09:00.517Z</time></trkpt><trkpt lat="40.9298314" lon="14.2678612"><ele>56.71428571428571</ele><time>2026-04-28T16:09:05.566Z</time></trkpt><trkpt lat="40.9297654" lon="14.2678846"><ele>56.857142857142854</ele><time>2026-04-28T16:09:09.504Z</time></trkpt><trkpt lat="40.9297144" lon="14.2679444"><ele>57.0</ele><time>2026-04-28T16:09:13.543Z</time></trkpt><trkpt lat="40.9296048" lon="14.2679289"><ele>57.0</ele><time>2026-04-28T16:09:18.49Z</time></trkpt><trkpt lat="40.9295288" lon="14.2679443"><ele>56.99999999999999</ele><time>2026-04-28T16:09:22.531Z</time></trkpt><trkpt lat="40.929459" lon="14.2679807"><ele>57.0</ele><time>2026-04-28T16:09:28.488Z</time></trkpt><trkpt lat="40.92942" lon="14.2680551"><ele>57.0</ele><time>2026-04-28T16:09:33.548Z</time></trkpt><trkpt lat="40.9293904" lon="14.2681348"><ele>56.99999999999999</ele><time>2026-04-28T16:09:37.485Z</time></trkpt><trkpt lat="40.929385" lon="14.2682216"><ele>57.0</ele><time>2026-04-28T16:09:40.516Z</time></trkpt><trkpt lat="40.9294193" lon="14.2682963"><ele>57.0</ele><time>2026-04-28T16:09:43.545Z</time></trkpt><trkpt lat="40.9294374" lon="14.2683893"><ele>56.857142857142854</ele><time>2026-04-28T16:09:47.483Z</time></trkpt><trkpt lat="40.9294508" lon="14.2684722"><ele>56.71428571428571</ele><time>2026-04-28T16:09:52.517Z</time></trkpt><trkpt lat="40.9294728" lon="14.2685587"><ele>56.57142857142857</ele><time>2026-04-28T16:09:58.491Z</time></trkpt><trkpt lat="40.9295007" lon="14.2686429"><ele>56.42857142857143</ele><time>2026-04-28T16:10:02.53Z</time></trkpt><trkpt lat="40.9295094" lon="14.2687304"><ele>56.285714285714285</ele><time>2026-04-28T16:10:06.47Z</time></trkpt><trkpt lat="40.9295227" lon="14.2688271"><ele>56.14285714285714</ele><time>2026-04-28T16:10:11.519Z</time></trkpt><trkpt lat="40.9295449" lon="14.2689248"><ele>56.0</ele><time>2026-04-28T16:10:16.568Z</time></trkpt><trkpt lat="40.9295615" lon="14.269015"><ele>55.714285714285715</ele><time>2026-04-28T16:10:21.516Z</time></trkpt><trkpt lat="40.929592" lon="14.26909"><ele>55.42857142857143</ele><time>2026-04-28T16:10:26.463Z</time></trkpt><trkpt lat="40.9296387" lon="14.2691686"><ele>55.14285714285714</ele><time>2026-04-28T16:10:31.513Z</time></trkpt><trkpt lat="40.9296841" lon="14.2692578"><ele>54.85714285714286</ele><time>2026-04-28T16:10:36.561Z</time></trkpt><trkpt lat="40.9297061" lon="14.2693484"><ele>54.57142857142857</ele><time>2026-04-28T16:10:40.499Z</time></trkpt><trkpt lat="40.9296981" lon="14.269446"><ele>54.285714285714285</ele><time>2026-04-28T16:10:44.539Z</time></trkpt><trkpt lat="40.9297114" lon="14.2695358"><ele>54.0</ele><time>2026-04-28T16:10:49.486Z</time></trkpt><trkpt lat="40.9297122" lon="14.269634"><ele>54.0</ele><time>2026-04-28T16:10:54.536Z</time></trkpt><trkpt lat="40.9296869" lon="14.2697217"><ele>54.0</ele><time>2026-04-28T16:11:00.492Z</time></trkpt><trkpt lat="40.9296865" lon="14.2698177"><ele>54.0</ele><time>2026-04-28T16:11:05.542Z</time></trkpt><trkpt lat="40.9296852" lon="14.2699037"><ele>54.0</ele><time>2026-04-28T16:11:09.479Z</time></trkpt><trkpt lat="40.9297152" lon="14.2699999"><ele>54.0</ele><time>2026-04-28T16:11:13.518Z</time></trkpt><trkpt lat="40.929768" lon="14.2700637"><ele>54.0</ele><time>2026-04-28T16:11:20.486Z</time></trkpt><trkpt lat="40.9297787" lon="14.2701633"><ele>54.0</ele><time>2026-04-28T16:11:26.543Z</time></trkpt><trkpt lat="40.9297047" lon="14.2702619"><ele>53.857142857142854</ele><time>2026-04-28T16:11:31.44Z</time></trkpt><trkpt lat="40.9296462" lon="14.2703156"><ele>53.71428571428571</ele><time>2026-04-28T16:11:34.439Z</time></trkpt><trkpt lat="40.9296074" lon="14.2703926"><ele>53.57142857142857</ele><time>2026-04-28T16:11:39.507Z</time></trkpt><trkpt lat="40.9295632" lon="14.2704665"><ele>53.42857142857143</ele><time>2026-04-28T16:11:43.547Z</time></trkpt><trkpt lat="40.9294936" lon="14.2705236"><ele>53.285714285714285</ele><time>2026-04-28T16:11:47.485Z</time></trkpt><trkpt lat="40.9294286" lon="14.2705339"><ele>53.142857142857146</ele><time>2026-04-28T16:11:50.514Z</time></trkpt><trkpt lat="40.9293864" lon="14.2706045"><ele>53.0</ele><time>2026-04-28T16:11:57.581Z</time></trkpt><trkpt lat="40.9293343" lon="14.2706534"><ele>53.0</ele><time>2026-04-28T16:12:05.567Z</time></trkpt><trkpt lat="40.9293749" lon="14.2707199"><ele>53.0</ele><time>2026-04-28T16:12:28.485Z</time></trkpt><trkpt lat="40.9294333" lon="14.2706833"><ele>53.0</ele><time>2026-04-28T16:12:33.554Z</time></trkpt><trkpt lat="40.9295099" lon="14.2706553"><ele>53.0</ele><time>2026-04-28T16:12:36.584Z</time></trkpt><trkpt lat="40.9295795" lon="14.270596"><ele>53.0</ele><time>2026-04-28T16:12:40.562Z</time></trkpt><trkpt lat="40.929652" lon="14.2705684"><ele>53.0</ele><time>2026-04-28T16:12:43.549Z</time></trkpt><trkpt lat="40.9296904" lon="14.2704777"><ele>53.0</ele><time>2026-04-28T16:12:55.474Z</time></trkpt><trkpt lat="40.9297706" lon="14.2705185"><ele>53.00000000000001</ele><time>2026-04-28T16:12:56.512Z</time></trkpt><trkpt lat="40.9298576" lon="14.270521"><ele>53.0</ele><time>2026-04-28T16:12:58.439Z</time></trkpt><trkpt lat="40.9299292" lon="14.2705265"><ele>53.0</ele><time>2026-04-28T16:13:02.479Z</time></trkpt><trkpt lat="40.9300078" lon="14.2704964"><ele>53.0</ele><time>2026-04-28T16:13:07.507Z</time></trkpt><trkpt lat="40.9300788" lon="14.270491"><ele>53.00000000000001</ele><time>2026-04-28T16:13:12.566Z</time></trkpt><trkpt lat="40.9301372" lon="14.2704339"><ele>53.0</ele><time>2026-04-28T16:13:17.437Z</time></trkpt><trkpt lat="40.9301919" lon="14.2703716"><ele>53.142857142857146</ele><time>2026-04-28T16:13:21.534Z</time></trkpt><trkpt lat="40.9302604" lon="14.2704154"><ele>53.285714285714285</ele><time>2026-04-28T16:13:26.498Z</time></trkpt><trkpt lat="40.9303108" lon="14.2703544"><ele>53.42857142857143</ele><time>2026-04-28T16:13:30.536Z</time></trkpt><trkpt lat="40.9303822" lon="14.2703722"><ele>53.57142857142857</ele><time>2026-04-28T16:13:34.5Z</time></trkpt><trkpt lat="40.9304486" lon="14.2703663"><ele>53.71428571428571</ele><time>2026-04-28T16:13:38.492Z</time></trkpt><trkpt lat="40.9305123" lon="14.2703513"><ele>53.857142857142854</ele><time>2026-04-28T16:13:43.596Z</time></trkpt><trkpt lat="40.9305844" lon="14.270423"><ele>54.0</ele><time>2026-04-28T16:13:48.538Z</time></trkpt><trkpt lat="40.93065" lon="14.2704324"><ele>54.0</ele><time>2026-04-28T16:13:51.567Z</time></trkpt><trkpt lat="40.9307147" lon="14.2704294"><ele>54.0</ele><time>2026-04-28T16:13:56.513Z</time></trkpt><trkpt lat="40.9307839" lon="14.2704237"><ele>54.0</ele><time>2026-04-28T16:14:01.501Z</time></trkpt><trkpt lat="40.9308847" lon="14.2704625"><ele>54.0</ele><time>2026-04-28T16:14:08.487Z</time></trkpt><trkpt lat="40.9309462" lon="14.2704391"><ele>54.0</ele><time>2026-04-28T16:14:14.564Z</time></trkpt><trkpt lat="40.9310257" lon="14.2704843"><ele>54.0</ele><time>2026-04-28T16:14:18.521Z</time></trkpt><trkpt lat="40.9310933" lon="14.270476"><ele>54.0</ele><time>2026-04-28T16:14:22.605Z</time></trkpt><trkpt lat="40.9311572" lon="14.2704666"><ele>54.0</ele><time>2026-04-28T16:14:27.526Z</time></trkpt><trkpt lat="40.9312278" lon="14.27048"><ele>54.0</ele><time>2026-04-28T16:14:30.556Z</time></trkpt><trkpt lat="40.9312881" lon="14.2704502"><ele>54.0</ele><time>2026-04-28T16:14:34.523Z</time></trkpt><trkpt lat="40.9313431" lon="14.2705167"><ele>54.0</ele><time>2026-04-28T16:14:37.597Z</time></trkpt><trkpt lat="40.9314045" lon="14.2705411"><ele>54.0</ele><time>2026-04-28T16:14:40.478Z</time></trkpt><trkpt lat="40.9314798" lon="14.2705237"><ele>54.0</ele><time>2026-04-28T16:14:48.535Z</time></trkpt><trkpt lat="40.9315462" lon="14.2705282"><ele>54.0</ele><time>2026-04-28T16:14:52.533Z</time></trkpt><trkpt lat="40.9316148" lon="14.270512"><ele>54.0</ele><time>2026-04-28T16:14:56.571Z</time></trkpt><trkpt lat="40.9316732" lon="14.2704285"><ele>54.0</ele><time>2026-04-28T16:15:02.487Z</time></trkpt><trkpt lat="40.931734" lon="14.2703645"><ele>54.0</ele><time>2026-04-28T16:15:05.555Z</time></trkpt><trkpt lat="40.9318053" lon="14.2703559"><ele>54.0</ele><time>2026-04-28T16:15:10.502Z</time></trkpt><trkpt lat="40.9318702" lon="14.270369"><ele>54.0</ele><time>2026-04-28T16:15:15.469Z</time></trkpt><trkpt lat="40.9319206" lon="14.2704307"><ele>54.0</ele><time>2026-04-28T16:15:19.506Z</time></trkpt><trkpt lat="40.9319648" lon="14.2704906"><ele>53.714285714285715</ele><time>2026-04-28T16:15:23.545Z</time></trkpt><trkpt lat="40.9320262" lon="14.270534"><ele>53.42857142857143</ele><time>2026-04-28T16:15:27.514Z</time></trkpt><trkpt lat="40.9320845" lon="14.2705859"><ele>53.14285714285714</ele><time>2026-04-28T16:15:32.488Z</time></trkpt><trkpt lat="40.932151" lon="14.2705804"><ele>52.85714285714286</ele><time>2026-04-28T16:15:35.577Z</time></trkpt><trkpt lat="40.9322107" lon="14.2705076"><ele>52.57142857142858</ele><time>2026-04-28T16:15:38.545Z</time></trkpt><trkpt lat="40.9322727" lon="14.2704854"><ele>52.285714285714285</ele><time>2026-04-28T16:15:41.493Z</time></trkpt><trkpt lat="40.9323499" lon="14.2704911"><ele>52.0</ele><time>2026-04-28T16:15:45.53Z</time></trkpt><trkpt lat="40.9323885" lon="14.2704206"><ele>52.0</ele><time>2026-04-28T16:15:49.508Z</time></trkpt><trkpt lat="40.932408" lon="14.2703201"><ele>52.0</ele><time>2026-04-28T16:15:54.549Z</time></trkpt><trkpt lat="40.9324685" lon="14.2702359"><ele>52.0</ele><time>2026-04-28T16:15:57.497Z</time></trkpt><trkpt lat="40.9324561" lon="14.2701332"><ele>52.0</ele><time>2026-04-28T16:16:02.489Z</time></trkpt><trkpt lat="40.9326698" lon="14.2702943"><ele>52.14285714285714</ele><time>2026-04-28T16:16:05.604Z</time></trkpt><trkpt lat="40.9327406" lon="14.2702683"><ele>52.28571428571429</ele><time>2026-04-28T16:16:07.785Z</time></trkpt><trkpt lat="40.9328018" lon="14.2702378"><ele>52.42857142857143</ele><time>2026-04-28T16:16:11.073Z</time></trkpt><trkpt lat="40.9328778" lon="14.2702263"><ele>52.57142857142857</ele><time>2026-04-28T16:16:15.414Z</time></trkpt><trkpt lat="40.9329475" lon="14.2702278"><ele>52.71428571428571</ele><time>2026-04-28T16:16:19.558Z</time></trkpt><trkpt lat="40.9330173" lon="14.2701502"><ele>52.85714285714286</ele><time>2026-04-28T16:16:22.571Z</time></trkpt><trkpt lat="40.9330686" lon="14.2700931"><ele>53.0</ele><time>2026-04-28T16:16:25.458Z</time></trkpt><trkpt lat="40.9331365" lon="14.2700545"><ele>53.00000000000001</ele><time>2026-04-28T16:16:29.481Z</time></trkpt><trkpt lat="40.9332015" lon="14.2700621"><ele>53.0</ele><time>2026-04-28T16:16:32.529Z</time></trkpt><trkpt lat="40.9332582" lon="14.2701143"><ele>53.0</ele><time>2026-04-28T16:16:36.53Z</time></trkpt><trkpt lat="40.9333607" lon="14.2699961"><ele>53.0</ele><time>2026-04-28T16:16:41.949Z</time></trkpt><trkpt lat="40.933445" lon="14.2699087"><ele>53.00000000000001</ele><time>2026-04-28T16:16:44.069Z</time></trkpt><trkpt lat="40.9335097" lon="14.2698701"><ele>53.0</ele><time>2026-04-28T16:16:47.28Z</time></trkpt><trkpt lat="40.9335954" lon="14.2698713"><ele>53.0</ele><time>2026-04-28T16:16:51.568Z</time></trkpt><trkpt lat="40.9336393" lon="14.2698038"><ele>53.0</ele><time>2026-04-28T16:16:53.524Z</time></trkpt><trkpt lat="40.9336929" lon="14.2697396"><ele>53.0</ele><time>2026-04-28T16:16:56.47Z</time></trkpt><trkpt lat="40.9337668" lon="14.269771"><ele>53.0</ele><time>2026-04-28T16:16:59.456Z</time></trkpt><trkpt lat="40.9338319" lon="14.2697493"><ele>53.0</ele><time>2026-04-28T16:17:02.582Z</time></trkpt><trkpt lat="40.9338529" lon="14.2696484"><ele>53.0</ele><time>2026-04-28T16:17:05.426Z</time></trkpt><trkpt lat="40.9338927" lon="14.2695525"><ele>53.0</ele><time>2026-04-28T16:17:07.567Z</time></trkpt><trkpt lat="40.9339401" lon="14.2694912"><ele>52.833333333333336</ele><time>2026-04-28T16:17:10.48Z</time></trkpt><trkpt lat="40.9339661" lon="14.2693814"><ele>52.66666666666667</ele><time>2026-04-28T16:17:14.538Z</time></trkpt><trkpt lat="40.9340225" lon="14.2693067"><ele>52.5</ele><time>2026-04-28T16:17:19.483Z</time></trkpt><trkpt lat="40.9340802" lon="14.2693793"><ele>52.33333333333333</ele><time>2026-04-28T16:17:22.513Z</time></trkpt><trkpt lat="40.9341541" lon="14.2693911"><ele>52.166666666666664</ele><time>2026-04-28T16:17:25.538Z</time></trkpt><trkpt lat="40.9342199" lon="14.2693911"><ele>52.0</ele><time>2026-04-28T16:17:28.531Z</time></trkpt><trkpt lat="40.9342828" lon="14.2693417"><ele>52.285714285714285</ele><time>2026-04-28T16:17:31.407Z</time></trkpt><trkpt lat="40.9343305" lon="14.2692726"><ele>52.57142857142858</ele><time>2026-04-28T16:17:34.542Z</time></trkpt><trkpt lat="40.9343818" lon="14.2692218"><ele>52.85714285714286</ele><time>2026-04-28T16:17:37.573Z</time></trkpt><trkpt lat="40.9344535" lon="14.2691542"><ele>53.14285714285714</ele><time>2026-04-28T16:17:41.549Z</time></trkpt><trkpt lat="40.9345167" lon="14.2691855"><ele>53.42857142857143</ele><time>2026-04-28T16:17:45.487Z</time></trkpt><trkpt lat="40.9345555" lon="14.2691114"><ele>53.714285714285715</ele><time>2026-04-28T16:17:47.501Z</time></trkpt><trkpt lat="40.9346101" lon="14.2690381"><ele>54.0</ele><time>2026-04-28T16:17:49.473Z</time></trkpt><trkpt lat="40.9346456" lon="14.2689613"><ele>53.857142857142854</ele><time>2026-04-28T16:17:52.548Z</time></trkpt><trkpt lat="40.9346611" lon="14.2688666"><ele>53.71428571428571</ele><time>2026-04-28T16:17:55.56Z</time></trkpt><trkpt lat="40.9346685" lon="14.2687784"><ele>53.57142857142857</ele><time>2026-04-28T16:17:58.487Z</time></trkpt><trkpt lat="40.9346596" lon="14.2686912"><ele>53.42857142857143</ele><time>2026-04-28T16:18:01.53Z</time></trkpt><trkpt lat="40.9347056" lon="14.2686135"><ele>53.285714285714285</ele><time>2026-04-28T16:18:04.456Z</time></trkpt><trkpt lat="40.9347219" lon="14.2685307"><ele>53.142857142857146</ele><time>2026-04-28T16:18:07.527Z</time></trkpt><trkpt lat="40.9346768" lon="14.2684177"><ele>53.0</ele><time>2026-04-28T16:18:12.531Z</time></trkpt><trkpt lat="40.9346463" lon="14.2683184"><ele>53.0</ele><time>2026-04-28T16:18:14.492Z</time></trkpt><trkpt lat="40.9346308" lon="14.2682315"><ele>53.0</ele><time>2026-04-28T16:18:17.476Z</time></trkpt><trkpt lat="40.9345764" lon="14.2681643"><ele>53.0</ele><time>2026-04-28T16:18:20.503Z</time></trkpt><trkpt lat="40.9345234" lon="14.2681028"><ele>53.0</ele><time>2026-04-28T16:18:24.541Z</time></trkpt><trkpt lat="40.9345316" lon="14.2680024"><ele>53.0</ele><time>2026-04-28T16:18:27.467Z</time></trkpt><trkpt lat="40.9345223" lon="14.267913"><ele>53.0</ele><time>2026-04-28T16:18:29.52Z</time></trkpt><trkpt lat="40.9344983" lon="14.2678278"><ele>53.0</ele><time>2026-04-28T16:18:32.447Z</time></trkpt><trkpt lat="40.9344676" lon="14.2677501"><ele>53.0</ele><time>2026-04-28T16:18:35.541Z</time></trkpt><trkpt lat="40.9344354" lon="14.2676615"><ele>53.0</ele><time>2026-04-28T16:18:39.479Z</time></trkpt><trkpt lat="40.9344023" lon="14.2675763"><ele>53.0</ele><time>2026-04-28T16:18:43.515Z</time></trkpt><trkpt lat="40.9343839" lon="14.2674919"><ele>53.0</ele><time>2026-04-28T16:18:46.544Z</time></trkpt><trkpt lat="40.9343871" lon="14.2674062"><ele>53.0</ele><time>2026-04-28T16:18:49.555Z</time></trkpt><trkpt lat="40.934342" lon="14.2673182"><ele>53.0</ele><time>2026-04-28T16:18:53.571Z</time></trkpt><trkpt lat="40.9343339" lon="14.2672315"><ele>53.0</ele><time>2026-04-28T16:18:56.437Z</time></trkpt><trkpt lat="40.9343155" lon="14.2671443"><ele>53.142857142857146</ele><time>2026-04-28T16:18:59.563Z</time></trkpt><trkpt lat="40.9343126" lon="14.2670513"><ele>53.285714285714285</ele><time>2026-04-28T16:19:02.534Z</time></trkpt><trkpt lat="40.9343308" lon="14.2669567"><ele>53.42857142857143</ele><time>2026-04-28T16:19:06.52Z</time></trkpt><trkpt lat="40.9342943" lon="14.2668705"><ele>53.57142857142857</ele><time>2026-04-28T16:19:09.455Z</time></trkpt><trkpt lat="40.9342392" lon="14.2668004"><ele>53.71428571428571</ele><time>2026-04-28T16:19:12.481Z</time></trkpt><trkpt lat="40.9341808" lon="14.2667576"><ele>53.857142857142854</ele><time>2026-04-28T16:19:16.538Z</time></trkpt><trkpt lat="40.9341723" lon="14.2666561"><ele>54.0</ele><time>2026-04-28T16:19:19.507Z</time></trkpt><trkpt lat="40.9342144" lon="14.2665772"><ele>54.0</ele><time>2026-04-28T16:19:22.385Z</time></trkpt><trkpt lat="40.9342493" lon="14.2664769"><ele>54.0</ele><time>2026-04-28T16:19:26.53Z</time></trkpt><trkpt lat="40.9342637" lon="14.2663847"><ele>54.0</ele><time>2026-04-28T16:19:29.571Z</time></trkpt><trkpt lat="40.9341948" lon="14.266303"><ele>54.0</ele><time>2026-04-28T16:19:32.506Z</time></trkpt><trkpt lat="40.9341455" lon="14.266223"><ele>54.0</ele><time>2026-04-28T16:19:36.525Z</time></trkpt><trkpt lat="40.9340969" lon="14.2661688"><ele>54.0</ele><time>2026-04-28T16:19:39.472Z</time></trkpt><trkpt lat="40.934027" lon="14.2661415"><ele>54.333333333333336</ele><time>2026-04-28T16:19:42.536Z</time></trkpt><trkpt lat="40.9339601" lon="14.266191"><ele>54.66666666666667</ele><time>2026-04-28T16:19:46.471Z</time></trkpt><trkpt lat="40.9338818" lon="14.2661964"><ele>55.0</ele><time>2026-04-28T16:19:49.543Z</time></trkpt><trkpt lat="40.9338026" lon="14.2662302"><ele>55.333333333333336</ele><time>2026-04-28T16:19:53.508Z</time></trkpt><trkpt lat="40.9337471" lon="14.266291"><ele>55.66666666666667</ele><time>2026-04-28T16:19:57.485Z</time></trkpt><trkpt lat="40.9336781" lon="14.2663116"><ele>56.0</ele><time>2026-04-28T16:20:00.499Z</time></trkpt><trkpt lat="40.9336124" lon="14.2663609"><ele>56.0</ele><time>2026-04-28T16:20:04.438Z</time></trkpt><trkpt lat="40.9335419" lon="14.2664051"><ele>56.0</ele><time>2026-04-28T16:20:08.494Z</time></trkpt><trkpt lat="40.9334821" lon="14.2664388"><ele>56.0</ele><time>2026-04-28T16:20:11.534Z</time></trkpt><trkpt lat="40.9334227" lon="14.2664032"><ele>56.0</ele><time>2026-04-28T16:20:13.471Z</time></trkpt><trkpt lat="40.9333574" lon="14.2664072"><ele>56.0</ele><time>2026-04-28T16:20:18.487Z</time></trkpt><trkpt lat="40.9333338" lon="14.2664979"><ele>56.0</ele><time>2026-04-28T16:20:19.558Z</time></trkpt><trkpt lat="40.9332808" lon="14.2665536"><ele>56.0</ele><time>2026-04-28T16:20:21.551Z</time></trkpt><trkpt lat="40.9332582" lon="14.2666566"><ele>55.714285714285715</ele><time>2026-04-28T16:20:24.593Z</time></trkpt><trkpt lat="40.9331972" lon="14.2666979"><ele>55.42857142857143</ele><time>2026-04-28T16:20:28.558Z</time></trkpt><trkpt lat="40.9331664" lon="14.2666159"><ele>55.14285714285714</ele><time>2026-04-28T16:20:33.534Z</time></trkpt><trkpt lat="40.9330984" lon="14.2666413"><ele>54.85714285714286</ele><time>2026-04-28T16:20:36.511Z</time></trkpt><trkpt lat="40.9330205" lon="14.2666532"><ele>54.57142857142857</ele><time>2026-04-28T16:20:38.526Z</time></trkpt><trkpt lat="40.9329613" lon="14.2667046"><ele>54.285714285714285</ele><time>2026-04-28T16:20:42.443Z</time></trkpt><trkpt lat="40.9328883" lon="14.2667548"><ele>54.0</ele><time>2026-04-28T16:20:46.47Z</time></trkpt><trkpt lat="40.9328177" lon="14.2667813"><ele>54.0</ele><time>2026-04-28T16:20:49.535Z</time></trkpt><trkpt lat="40.9327563" lon="14.2668007"><ele>54.0</ele><time>2026-04-28T16:20:52.553Z</time></trkpt><trkpt lat="40.9326845" lon="14.2668401"><ele>54.0</ele><time>2026-04-28T16:20:56.535Z</time></trkpt><trkpt lat="40.9326266" lon="14.2668808"><ele>54.0</ele><time>2026-04-28T16:21:00.514Z</time></trkpt><trkpt lat="40.9325498" lon="14.2668994"><ele>54.0</ele><time>2026-04-28T16:21:04.51Z</time></trkpt><trkpt lat="40.9324979" lon="14.2669559"><ele>54.0</ele><time>2026-04-28T16:21:07.531Z</time></trkpt><trkpt lat="40.9324369" lon="14.2669906"><ele>54.0</ele><time>2026-04-28T16:21:10.418Z</time></trkpt><trkpt lat="40.9323723" lon="14.2670223"><ele>54.5</ele><time>2026-04-28T16:21:13.542Z</time></trkpt><trkpt lat="40.9323054" lon="14.2670224"><ele>55.0</ele><time>2026-04-28T16:21:17.239Z</time></trkpt><trkpt lat="40.9322536" lon="14.2670769"><ele>55.5</ele><time>2026-04-28T16:21:20.509Z</time></trkpt><trkpt lat="40.9321912" lon="14.267102"><ele>56.0</ele><time>2026-04-28T16:21:23.457Z</time></trkpt><trkpt lat="40.9321188" lon="14.2671291"><ele>56.5</ele><time>2026-04-28T16:21:26.498Z</time></trkpt><trkpt lat="40.9320297" lon="14.2672105"><ele>57.0</ele><time>2026-04-28T16:21:32.476Z</time></trkpt><trkpt lat="40.9319761" lon="14.2672681"><ele>56.857142857142854</ele><time>2026-04-28T16:21:35.5Z</time></trkpt><trkpt lat="40.9319096" lon="14.2673078"><ele>56.71428571428571</ele><time>2026-04-28T16:21:38.528Z</time></trkpt><trkpt lat="40.9318468" lon="14.2673504"><ele>56.57142857142857</ele><time>2026-04-28T16:21:41.477Z</time></trkpt><trkpt lat="40.9317706" lon="14.2673751"><ele>56.42857142857143</ele><time>2026-04-28T16:21:44.404Z</time></trkpt><trkpt lat="40.9317214" lon="14.2674396"><ele>56.285714285714285</ele><time>2026-04-28T16:21:47.508Z</time></trkpt><trkpt lat="40.9316521" lon="14.2674553"><ele>56.14285714285714</ele><time>2026-04-28T16:21:51.545Z</time></trkpt><trkpt lat="40.9315896" lon="14.2675219"><ele>56.0</ele><time>2026-04-28T16:21:55.519Z</time></trkpt><trkpt lat="40.9314857" lon="14.2675816"><ele>56.0</ele><time>2026-04-28T16:22:02.545Z</time></trkpt><trkpt lat="40.9314159" lon="14.2675862"><ele>56.0</ele><time>2026-04-28T16:22:04.5Z</time></trkpt><trkpt lat="40.9313516" lon="14.2676116"><ele>56.0</ele><time>2026-04-28T16:22:07.486Z</time></trkpt><trkpt lat="40.9312836" lon="14.2676392"><ele>56.0</ele><time>2026-04-28T16:22:10.567Z</time></trkpt><trkpt lat="40.9312307" lon="14.2676938"><ele>56.0</ele><time>2026-04-28T16:22:13.54Z</time></trkpt><trkpt lat="40.9311616" lon="14.2677514"><ele>56.0</ele><time>2026-04-28T16:22:17.398Z</time></trkpt><trkpt lat="40.9310976" lon="14.2677854"><ele>56.0</ele><time>2026-04-28T16:22:21.511Z</time></trkpt><trkpt lat="40.9310424" lon="14.2677419"><ele>56.0</ele><time>2026-04-28T16:22:23.544Z</time></trkpt><trkpt lat="40.9309719" lon="14.2677069"><ele>56.0</ele><time>2026-04-28T16:22:26.451Z</time></trkpt><trkpt lat="40.9309033" lon="14.2676912"><ele>56.0</ele><time>2026-04-28T16:22:29.483Z</time></trkpt><trkpt lat="40.93082" lon="14.2677118"><ele>56.0</ele><time>2026-04-28T16:22:33.52Z</time></trkpt><trkpt lat="40.9307682" lon="14.2677627"><ele>56.0</ele><time>2026-04-28T16:22:36.487Z</time></trkpt><trkpt lat="40.9306989" lon="14.2677529"><ele>56.0</ele><time>2026-04-28T16:22:39.527Z</time></trkpt><trkpt lat="40.9306174" lon="14.2677653"><ele>56.0</ele><time>2026-04-28T16:22:43.462Z</time></trkpt><trkpt lat="40.9305456" lon="14.2677245"><ele>56.00000000000001</ele><time>2026-04-28T16:22:46.71Z</time></trkpt><trkpt lat="40.9304616" lon="14.2677139"><ele>56.0</ele><time>2026-04-28T16:22:49.974Z</time></trkpt><trkpt lat="40.9303812" lon="14.2677769"><ele>56.0</ele><time>2026-04-28T16:22:53.182Z</time></trkpt><trkpt lat="40.9303058" lon="14.2677646"><ele>56.0</ele><time>2026-04-28T16:22:56.348Z</time></trkpt><trkpt lat="40.9302377" lon="14.267767"><ele>56.00000000000001</ele><time>2026-04-28T16:22:59.558Z</time></trkpt><trkpt lat="40.9301694" lon="14.2678057"><ele>56.0</ele><time>2026-04-28T16:23:04.512Z</time></trkpt><trkpt lat="40.9300871" lon="14.2678117"><ele>56.16666666666667</ele><time>2026-04-28T16:23:06.487Z</time></trkpt><trkpt lat="40.9300146" lon="14.2678149"><ele>56.333333333333336</ele><time>2026-04-28T16:23:09.593Z</time></trkpt><trkpt lat="40.9299443" lon="14.2678567"><ele>56.5</ele><time>2026-04-28T16:23:13.533Z</time></trkpt><trkpt lat="40.9298817" lon="14.2678465"><ele>56.66666666666667</ele><time>2026-04-28T16:23:16.431Z</time></trkpt><trkpt lat="40.9298385" lon="14.2677823"><ele>56.833333333333336</ele><time>2026-04-28T16:23:20.467Z</time></trkpt><trkpt lat="40.9297557" lon="14.2678857"><ele>57.0</ele><time>2026-04-28T16:23:23.5Z</time></trkpt><trkpt lat="40.9296698" lon="14.2679133"><ele>57.0</ele><time>2026-04-28T16:23:26.561Z</time></trkpt><trkpt lat="40.9296327" lon="14.2679846"><ele>56.99999999999999</ele><time>2026-04-28T16:23:29.447Z</time></trkpt><trkpt lat="40.9295363" lon="14.2680303"><ele>57.0</ele><time>2026-04-28T16:23:35.571Z</time></trkpt><trkpt lat="40.9294774" lon="14.2680702"><ele>57.0</ele><time>2026-04-28T16:23:37.418Z</time></trkpt><trkpt lat="40.9294602" lon="14.2681651"><ele>56.99999999999999</ele><time>2026-04-28T16:23:40.552Z</time></trkpt><trkpt lat="40.9294303" lon="14.2682489"><ele>57.0</ele><time>2026-04-28T16:23:43.584Z</time></trkpt><trkpt lat="40.9293886" lon="14.2683119"><ele>57.0</ele><time>2026-04-28T16:23:47.458Z</time></trkpt><trkpt lat="40.9293632" lon="14.2683938"><ele>56.833333333333336</ele><time>2026-04-28T16:23:50.561Z</time></trkpt><trkpt lat="40.9294655" lon="14.2684136"><ele>56.66666666666667</ele><time>2026-04-28T16:23:53.543Z</time></trkpt><trkpt lat="40.929493" lon="14.268494"><ele>56.5</ele><time>2026-04-28T16:23:56.575Z</time></trkpt><trkpt lat="40.9295338" lon="14.268585"><ele>56.333333333333336</ele><time>2026-04-28T16:23:58.518Z</time></trkpt><trkpt lat="40.9295627" lon="14.2686678"><ele>56.16666666666667</ele><time>2026-04-28T16:24:01.561Z</time></trkpt><trkpt lat="40.9295766" lon="14.2687681"><ele>56.0</ele><time>2026-04-28T16:24:05.095Z</time></trkpt><trkpt lat="40.9295766" lon="14.2688708"><ele>55.66666666666667</ele><time>2026-04-28T16:24:08.522Z</time></trkpt><trkpt lat="40.9295874" lon="14.2689643"><ele>55.333333333333336</ele><time>2026-04-28T16:24:11.549Z</time></trkpt><trkpt lat="40.9295871" lon="14.2690651"><ele>55.0</ele><time>2026-04-28T16:24:15.504Z</time></trkpt><trkpt lat="40.9296469" lon="14.269133"><ele>54.66666666666667</ele><time>2026-04-28T16:24:18.514Z</time></trkpt><trkpt lat="40.9296992" lon="14.2692135"><ele>54.333333333333336</ele><time>2026-04-28T16:24:22.571Z</time></trkpt><trkpt lat="40.9296895" lon="14.2693424"><ele>54.0</ele><time>2026-04-28T16:24:27.725Z</time></trkpt><trkpt lat="40.9297142" lon="14.269449"><ele>54.0</ele><time>2026-04-28T16:24:31.015Z</time></trkpt><trkpt lat="40.9296901" lon="14.2695428"><ele>54.0</ele><time>2026-04-28T16:24:35.486Z</time></trkpt><trkpt lat="40.9296664" lon="14.2696293"><ele>54.0</ele><time>2026-04-28T16:24:40.59Z</time></trkpt><trkpt lat="40.929698" lon="14.2697239"><ele>54.0</ele><time>2026-04-28T16:24:45.414Z</time></trkpt><trkpt lat="40.9297453" lon="14.2697897"><ele>54.0</ele><time>2026-04-28T16:24:47.507Z</time></trkpt><trkpt lat="40.9297528" lon="14.2698814"><ele>54.0</ele><time>2026-04-28T16:24:52.451Z</time></trkpt><trkpt lat="40.9297637" lon="14.2699776"><ele>54.0</ele><time>2026-04-28T16:24:57.575Z</time></trkpt><trkpt lat="40.9297321" lon="14.2701752"><ele>53.833333333333336</ele><time>2026-04-28T16:25:06.44Z</time></trkpt><trkpt lat="40.9297075" lon="14.2702686"><ele>53.66666666666667</ele><time>2026-04-28T16:25:09.44Z</time></trkpt><trkpt lat="40.9296731" lon="14.2703845"><ele>53.5</ele><time>2026-04-28T16:25:14.528Z</time></trkpt><trkpt lat="40.9296664" lon="14.2704878"><ele>53.333333333333336</ele><time>2026-04-28T16:25:19.573Z</time></trkpt><trkpt lat="40.9296393" lon="14.2705767"><ele>53.16666666666667</ele><time>2026-04-28T16:25:24.517Z</time></trkpt><trkpt lat="40.9295471" lon="14.2705292"><ele>53.0</ele><time>2026-04-28T16:25:27.543Z</time></trkpt><trkpt lat="40.9294828" lon="14.2705316"><ele>53.0</ele><time>2026-04-28T16:25:30.575Z</time></trkpt><trkpt lat="40.9294176" lon="14.2705453"><ele>53.0</ele><time>2026-04-28T16:25:34.606Z</time></trkpt><trkpt lat="40.9293425" lon="14.2705766"><ele>53.0</ele><time>2026-04-28T16:25:38.574Z</time></trkpt><trkpt lat="40.9292885" lon="14.2706239"><ele>53.0</ele><time>2026-04-28T16:25:44.505Z</time></trkpt><trkpt lat="40.9293208" lon="14.2706957"><ele>53.0</ele><time>2026-04-28T16:25:53.497Z</time></trkpt><trkpt lat="40.9293875" lon="14.2706882"><ele>53.0</ele><time>2026-04-28T16:26:03.506Z</time></trkpt><trkpt lat="40.9294674" lon="14.2706366"><ele>53.0</ele><time>2026-04-28T16:26:07.543Z</time></trkpt><trkpt lat="40.9295433" lon="14.2706274"><ele>53.00000000000001</ele><time>2026-04-28T16:26:10.569Z</time></trkpt><trkpt lat="40.9296206" lon="14.2705891"><ele>53.0</ele><time>2026-04-28T16:26:15.514Z</time></trkpt><trkpt lat="40.9296839" lon="14.2705644"><ele>53.0</ele><time>2026-04-28T16:26:19.549Z</time></trkpt><trkpt lat="40.9297437" lon="14.270511"><ele>53.0</ele><time>2026-04-28T16:26:23.486Z</time></trkpt><trkpt lat="40.9298199" lon="14.2705565"><ele>53.00000000000001</ele><time>2026-04-28T16:26:26.513Z</time></trkpt><trkpt lat="40.9299014" lon="14.2705701"><ele>53.0</ele><time>2026-04-28T16:26:30.469Z</time></trkpt><trkpt lat="40.9299513" lon="14.2705021"><ele>53.0</ele><time>2026-04-28T16:26:36.543Z</time></trkpt><trkpt lat="40.9300283" lon="14.2705112"><ele>53.0</ele><time>2026-04-28T16:26:43.486Z</time></trkpt><trkpt lat="40.9301081" lon="14.2705232"><ele>53.0</ele><time>2026-04-28T16:26:47.522Z</time></trkpt><trkpt lat="40.9301746" lon="14.270499"><ele>53.0</ele><time>2026-04-28T16:26:54.546Z</time></trkpt><trkpt lat="40.9302347" lon="14.27045"><ele>53.0</ele><time>2026-04-28T16:26:59.537Z</time></trkpt><trkpt lat="40.9302854" lon="14.2703754"><ele>53.0</ele><time>2026-04-28T16:27:04.56Z</time></trkpt><trkpt lat="40.9303537" lon="14.2703648"><ele>53.0</ele><time>2026-04-28T16:27:08.574Z</time></trkpt><trkpt lat="40.9304228" lon="14.2703792"><ele>53.16666666666667</ele><time>2026-04-28T16:27:12.509Z</time></trkpt><trkpt lat="40.9304845" lon="14.2704117"><ele>53.333333333333336</ele><time>2026-04-28T16:27:15.556Z</time></trkpt><trkpt lat="40.9305458" lon="14.2704559"><ele>53.5</ele><time>2026-04-28T16:27:20.521Z</time></trkpt><trkpt lat="40.9306155" lon="14.2704333"><ele>53.66666666666667</ele><time>2026-04-28T16:27:25.515Z</time></trkpt><trkpt lat="40.9306948" lon="14.27046"><ele>53.833333333333336</ele><time>2026-04-28T16:27:32.478Z</time></trkpt><trkpt lat="40.9307765" lon="14.2704593"><ele>54.0</ele><time>2026-04-28T16:27:36.534Z</time></trkpt><trkpt lat="40.9308562" lon="14.2704617"><ele>54.0</ele><time>2026-04-28T16:27:40.469Z</time></trkpt><trkpt lat="40.930925" lon="14.2704552"><ele>54.0</ele><time>2026-04-28T16:27:44.54Z</time></trkpt><trkpt lat="40.9309871" lon="14.2704828"><ele>54.0</ele><time>2026-04-28T16:27:51.574Z</time></trkpt><trkpt lat="40.9310524" lon="14.2705251"><ele>54.0</ele><time>2026-04-28T16:27:53.45Z</time></trkpt><trkpt lat="40.9311221" lon="14.2705433"><ele>54.0</ele><time>2026-04-28T16:27:57.493Z</time></trkpt><trkpt lat="40.9311889" lon="14.2705283"><ele>54.0</ele><time>2026-04-28T16:28:01.53Z</time></trkpt><trkpt lat="40.9312601" lon="14.2705119"><ele>54.0</ele><time>2026-04-28T16:28:07.504Z</time></trkpt><trkpt lat="40.9313311" lon="14.2705167"><ele>54.0</ele><time>2026-04-28T16:28:12.519Z</time></trkpt><trkpt lat="40.9313998" lon="14.2705539"><ele>54.0</ele><time>2026-04-28T16:28:17.558Z</time></trkpt><trkpt lat="40.9314762" lon="14.2705667"><ele>54.0</ele><time>2026-04-28T16:28:21.5Z</time></trkpt><trkpt lat="40.9315389" lon="14.2705531"><ele>54.0</ele><time>2026-04-28T16:28:25.441Z</time></trkpt><trkpt lat="40.9316105" lon="14.2705602"><ele>54.0</ele><time>2026-04-28T16:28:31.489Z</time></trkpt><trkpt lat="40.9316861" lon="14.2705335"><ele>54.0</ele><time>2026-04-28T16:28:37.589Z</time></trkpt><trkpt lat="40.9316765" lon="14.2704209"><ele>54.0</ele><time>2026-04-28T16:28:40.512Z</time></trkpt><trkpt lat="40.9316688" lon="14.2703276"><ele>54.0</ele><time>2026-04-28T16:28:43.479Z</time></trkpt><trkpt lat="40.9317342" lon="14.270323"><ele>54.0</ele><time>2026-04-28T16:28:47.525Z</time></trkpt><trkpt lat="40.9317982" lon="14.2703416"><ele>54.0</ele><time>2026-04-28T16:28:51.56Z</time></trkpt><trkpt lat="40.9318391" lon="14.2704143"><ele>54.0</ele><time>2026-04-28T16:28:55.511Z</time></trkpt><trkpt lat="40.9318748" lon="14.2704903"><ele>54.0</ele><time>2026-04-28T16:28:59.533Z</time></trkpt><trkpt lat="40.9319329" lon="14.2705445"><ele>54.0</ele><time>2026-04-28T16:29:05.527Z</time></trkpt><trkpt lat="40.931987" lon="14.2706028"><ele>53.714285714285715</ele><time>2026-04-28T16:29:10.582Z</time></trkpt><trkpt lat="40.9320626" lon="14.2705585"><ele>53.42857142857143</ele><time>2026-04-28T16:29:12.52Z</time></trkpt><trkpt lat="40.9321328" lon="14.2705295"><ele>53.14285714285714</ele><time>2026-04-28T16:29:15.44Z</time></trkpt><trkpt lat="40.9321853" lon="14.2704829"><ele>52.85714285714286</ele><time>2026-04-28T16:29:18.59Z</time></trkpt><trkpt lat="40.9322397" lon="14.2704328"><ele>52.57142857142858</ele><time>2026-04-28T16:29:23.54Z</time></trkpt><trkpt lat="40.9322803" lon="14.2703604"><ele>52.285714285714285</ele><time>2026-04-28T16:29:30.457Z</time></trkpt><trkpt lat="40.9323336" lon="14.2704277"><ele>52.0</ele><time>2026-04-28T16:29:31.531Z</time></trkpt><trkpt lat="40.9324021" lon="14.2704561"><ele>52.0</ele><time>2026-04-28T16:29:36.496Z</time></trkpt><trkpt lat="40.9324697" lon="14.2705015"><ele>52.0</ele><time>2026-04-28T16:29:42.55Z</time></trkpt><trkpt lat="40.9325388" lon="14.2704386"><ele>52.0</ele><time>2026-04-28T16:29:45.538Z</time></trkpt><trkpt lat="40.9325552" lon="14.2703482"><ele>52.0</ele><time>2026-04-28T16:29:48.545Z</time></trkpt><trkpt lat="40.9326275" lon="14.2703041"><ele>52.0</ele><time>2026-04-28T16:29:53.529Z</time></trkpt><trkpt lat="40.9326925" lon="14.2703257"><ele>52.0</ele><time>2026-04-28T16:29:57.565Z</time></trkpt><trkpt lat="40.9327583" lon="14.2703401"><ele>52.0</ele><time>2026-04-28T16:30:05.518Z</time></trkpt><trkpt lat="40.9328309" lon="14.2702847"><ele>52.14285714285714</ele><time>2026-04-28T16:30:10.562Z</time></trkpt><trkpt lat="40.9329003" lon="14.2702931"><ele>52.28571428571429</ele><time>2026-04-28T16:30:14.499Z</time></trkpt><trkpt lat="40.9329324" lon="14.2702162"><ele>52.42857142857143</ele><time>2026-04-28T16:30:17.465Z</time></trkpt><trkpt lat="40.9329883" lon="14.2701511"><ele>52.57142857142857</ele><time>2026-04-28T16:30:21.522Z</time></trkpt><trkpt lat="40.9330503" lon="14.2701105"><ele>52.71428571428571</ele><time>2026-04-28T16:30:23.542Z</time></trkpt><trkpt lat="40.9331063" lon="14.2700581"><ele>52.85714285714286</ele><time>2026-04-28T16:30:28.487Z</time></trkpt><trkpt lat="40.9331694" lon="14.2700475"><ele>53.0</ele><time>2026-04-28T16:30:32.465Z</time></trkpt><trkpt lat="40.9332343" lon="14.2699956"><ele>53.0</ele><time>2026-04-28T16:30:38.532Z</time></trkpt><trkpt lat="40.933294" lon="14.2699487"><ele>53.0</ele><time>2026-04-28T16:30:42.468Z</time></trkpt><trkpt lat="40.933356" lon="14.2698944"><ele>53.0</ele><time>2026-04-28T16:30:47.516Z</time></trkpt><trkpt lat="40.9334263" lon="14.2698543"><ele>53.0</ele><time>2026-04-28T16:30:53.482Z</time></trkpt><trkpt lat="40.933494" lon="14.2698323"><ele>53.0</ele><time>2026-04-28T16:30:58.63Z</time></trkpt><trkpt lat="40.933559" lon="14.2697955"><ele>53.0</ele><time>2026-04-28T16:31:03.577Z</time></trkpt><trkpt lat="40.9336157" lon="14.2697363"><ele>53.0</ele><time>2026-04-28T16:31:10.483Z</time></trkpt><trkpt lat="40.9336823" lon="14.2696884"><ele>52.85714285714286</ele><time>2026-04-28T16:31:13.513Z</time></trkpt><trkpt lat="40.9337605" lon="14.2696469"><ele>52.71428571428571</ele><time>2026-04-28T16:31:18.559Z</time></trkpt><trkpt lat="40.9338294" lon="14.2696235"><ele>52.57142857142857</ele><time>2026-04-28T16:31:22.497Z</time></trkpt><trkpt lat="40.9338777" lon="14.2695487"><ele>52.42857142857143</ele><time>2026-04-28T16:31:28.564Z</time></trkpt><trkpt lat="40.9338872" lon="14.2694595"><ele>52.28571428571429</ele><time>2026-04-28T16:31:32.5Z</time></trkpt><trkpt lat="40.9338963" lon="14.2693717"><ele>52.14285714285714</ele><time>2026-04-28T16:31:37.57Z</time></trkpt><trkpt lat="40.9339664" lon="14.2693844"><ele>52.0</ele><time>2026-04-28T16:31:45.482Z</time></trkpt><trkpt lat="40.9340377" lon="14.2693462"><ele>51.99999999999999</ele><time>2026-04-28T16:31:48.443Z</time></trkpt><trkpt lat="40.9341065" lon="14.2693577"><ele>52.0</ele><time>2026-04-28T16:31:51.49Z</time></trkpt><trkpt lat="40.9341967" lon="14.2693507"><ele>52.0</ele><time>2026-04-28T16:31:55.464Z</time></trkpt><trkpt lat="40.9342635" lon="14.2693026"><ele>52.0</ele><time>2026-04-28T16:31:58.492Z</time></trkpt><trkpt lat="40.9343195" lon="14.2692382"><ele>51.99999999999999</ele><time>2026-04-28T16:32:04.549Z</time></trkpt><trkpt lat="40.9343913" lon="14.2692048"><ele>52.0</ele><time>2026-04-28T16:32:08.526Z</time></trkpt><trkpt lat="40.9344501" lon="14.2691376"><ele>52.400000000000006</ele><time>2026-04-28T16:32:12.456Z</time></trkpt><trkpt lat="40.9344509" lon="14.2690472"><ele>52.800000000000004</ele><time>2026-04-28T16:32:17.49Z</time></trkpt><trkpt lat="40.9345331" lon="14.2690237"><ele>53.2</ele><time>2026-04-28T16:32:20.517Z</time></trkpt><trkpt lat="40.9344819" lon="14.2689714"><ele>53.6</ele><time>2026-04-28T16:32:29.525Z</time></trkpt><trkpt lat="40.9346616" lon="14.2690984"><ele>54.0</ele><time>2026-04-28T16:32:34.548Z</time></trkpt><trkpt lat="40.9346484" lon="14.2690057"><ele>53.800000000000004</ele><time>2026-04-28T16:32:40.502Z</time></trkpt><trkpt lat="40.9346574" lon="14.2687392"><ele>53.60000000000001</ele><time>2026-04-28T16:32:42.522Z</time></trkpt><trkpt lat="40.9346624" lon="14.2686543"><ele>53.4</ele><time>2026-04-28T16:32:43.531Z</time></trkpt><trkpt lat="40.9346589" lon="14.2685632"><ele>53.2</ele><time>2026-04-28T16:32:46.559Z</time></trkpt><trkpt lat="40.9346298" lon="14.2684808"><ele>53.0</ele><time>2026-04-28T16:32:50.495Z</time></trkpt><trkpt lat="40.9346149" lon="14.2683951"><ele>53.0</ele><time>2026-04-28T16:32:54.532Z</time></trkpt><trkpt lat="40.9346109" lon="14.268303"><ele>53.0</ele><time>2026-04-28T16:32:58.469Z</time></trkpt><trkpt lat="40.9345762" lon="14.2682109"><ele>53.0</ele><time>2026-04-28T16:33:03.516Z</time></trkpt><trkpt lat="40.9345462" lon="14.2681371"><ele>53.0</ele><time>2026-04-28T16:33:09.472Z</time></trkpt><trkpt lat="40.9345876" lon="14.2680633"><ele>53.0</ele><time>2026-04-28T16:33:13.428Z</time></trkpt><trkpt lat="40.934563" lon="14.2679864"><ele>53.0</ele><time>2026-04-28T16:33:16.445Z</time></trkpt><trkpt lat="40.9345324" lon="14.2679032"><ele>53.0</ele><time>2026-04-28T16:33:20.497Z</time></trkpt><trkpt lat="40.9344814" lon="14.2678195"><ele>53.0</ele><time>2026-04-28T16:33:27.119Z</time></trkpt><trkpt lat="40.934474" lon="14.2677121"><ele>53.0</ele><time>2026-04-28T16:33:29.493Z</time></trkpt><trkpt lat="40.9344238" lon="14.2676449"><ele>53.0</ele><time>2026-04-28T16:33:33.528Z</time></trkpt><trkpt lat="40.9344011" lon="14.267543"><ele>53.0</ele><time>2026-04-28T16:33:39.483Z</time></trkpt><trkpt lat="40.9343798" lon="14.2674572"><ele>53.0</ele><time>2026-04-28T16:33:42.512Z</time></trkpt><trkpt lat="40.934372" lon="14.2673729"><ele>53.0</ele><time>2026-04-28T16:33:46.553Z</time></trkpt><trkpt lat="40.9343867" lon="14.2672809"><ele>53.0</ele><time>2026-04-28T16:33:50.486Z</time></trkpt><trkpt lat="40.9343703" lon="14.26719"><ele>53.142857142857146</ele><time>2026-04-28T16:33:54.46Z</time></trkpt><trkpt lat="40.9343329" lon="14.2671042"><ele>53.285714285714285</ele><time>2026-04-28T16:33:59.572Z</time></trkpt><trkpt lat="40.9342892" lon="14.2670172"><ele>53.42857142857143</ele><time>2026-04-28T16:34:04.44Z</time></trkpt><trkpt lat="40.9342465" lon="14.2669491"><ele>53.57142857142857</ele><time>2026-04-28T16:34:09.464Z</time></trkpt><trkpt lat="40.9341944" lon="14.2669021"><ele>53.71428571428571</ele><time>2026-04-28T16:34:14.51Z</time></trkpt><trkpt lat="40.9342409" lon="14.2668269"><ele>53.857142857142854</ele><time>2026-04-28T16:34:16.491Z</time></trkpt><trkpt lat="40.9342269" lon="14.266742"><ele>54.0</ele><time>2026-04-28T16:34:19.558Z</time></trkpt><trkpt lat="40.9342161" lon="14.2666574"><ele>54.0</ele><time>2026-04-28T16:34:23.601Z</time></trkpt><trkpt lat="40.9341905" lon="14.2665736"><ele>54.0</ele><time>2026-04-28T16:34:28.541Z</time></trkpt><trkpt lat="40.9341741" lon="14.266475"><ele>54.0</ele><time>2026-04-28T16:34:33.49Z</time></trkpt><trkpt lat="40.9341585" lon="14.2663844"><ele>54.0</ele><time>2026-04-28T16:34:38.533Z</time></trkpt><trkpt lat="40.9341438" lon="14.2662931"><ele>54.0</ele><time>2026-04-28T16:34:43.917Z</time></trkpt><trkpt lat="40.9341112" lon="14.2662057"><ele>54.0</ele><time>2026-04-28T16:34:49.549Z</time></trkpt><trkpt lat="40.93405" lon="14.2661547"><ele>54.0</ele><time>2026-04-28T16:34:58.53Z</time></trkpt><trkpt lat="40.9339774" lon="14.2661288"><ele>54.285714285714285</ele><time>2026-04-28T16:35:02.567Z</time></trkpt><trkpt lat="40.9339094" lon="14.2661497"><ele>54.57142857142857</ele><time>2026-04-28T16:35:06.515Z</time></trkpt><trkpt lat="40.9338367" lon="14.2661783"><ele>54.85714285714286</ele><time>2026-04-28T16:35:12.469Z</time></trkpt><trkpt lat="40.933774" lon="14.2662019"><ele>55.14285714285714</ele><time>2026-04-28T16:35:16.508Z</time></trkpt><trkpt lat="40.9337181" lon="14.2662478"><ele>55.42857142857143</ele><time>2026-04-28T16:35:20.545Z</time></trkpt><trkpt lat="40.9336436" lon="14.2662803"><ele>55.714285714285715</ele><time>2026-04-28T16:35:25.592Z</time></trkpt><trkpt lat="40.933582" lon="14.2662981"><ele>56.0</ele><time>2026-04-28T16:35:30.54Z</time></trkpt><trkpt lat="40.9335239" lon="14.2663588"><ele>56.0</ele><time>2026-04-28T16:35:37.506Z</time></trkpt><trkpt lat="40.9334665" lon="14.2663981"><ele>56.0</ele><time>2026-04-28T16:35:41.543Z</time></trkpt><trkpt lat="40.9334011" lon="14.2664447"><ele>56.0</ele><time>2026-04-28T16:35:47.499Z</time></trkpt><trkpt lat="40.933334" lon="14.2664757"><ele>56.0</ele><time>2026-04-28T16:35:53.455Z</time></trkpt><trkpt lat="40.933266" lon="14.2665009"><ele>56.0</ele><time>2026-04-28T16:35:59.513Z</time></trkpt><trkpt lat="40.9332141" lon="14.2665585"><ele>56.0</ele><time>2026-04-28T16:36:05.469Z</time></trkpt><trkpt lat="40.9331882" lon="14.2666471"><ele>56.0</ele><time>2026-04-28T16:36:11.526Z</time></trkpt><trkpt lat="40.9331409" lon="14.2667192"><ele>55.599999999999994</ele><time>2026-04-28T16:36:17.482Z</time></trkpt><trkpt lat="40.9331185" lon="14.2668"><ele>55.199999999999996</ele><time>2026-04-28T16:36:27.51Z</time></trkpt><trkpt lat="40.933154" lon="14.2669052"><ele>54.800000000000004</ele><time>2026-04-28T16:36:31.553Z</time></trkpt><trkpt lat="40.9332066" lon="14.2669861"><ele>54.400000000000006</ele><time>2026-04-28T16:36:34.515Z</time></trkpt><trkpt lat="40.9332429" lon="14.2670594"><ele>54.0</ele><time>2026-04-28T16:36:37.55Z</time></trkpt><trkpt lat="40.9327726" lon="14.2668537"><ele>54.0</ele><time>2026-04-28T16:36:39.471Z</time></trkpt><trkpt lat="40.9326729" lon="14.2668508"><ele>54.0</ele><time>2026-04-28T16:36:40.542Z</time></trkpt><trkpt lat="40.9325779" lon="14.2668583"><ele>54.0</ele><time>2026-04-28T16:36:42.517Z</time></trkpt><trkpt lat="40.9325084" lon="14.2668811"><ele>54.0</ele><time>2026-04-28T16:36:44.537Z</time></trkpt><trkpt lat="40.9324423" lon="14.2669312"><ele>54.0</ele><time>2026-04-28T16:36:47.564Z</time></trkpt><trkpt lat="40.9323801" lon="14.2669885"><ele>54.0</ele><time>2026-04-28T16:36:48.466Z</time></trkpt><trkpt lat="40.9323063" lon="14.2670346"><ele>54.42857142857143</ele><time>2026-04-28T16:36:50.532Z</time></trkpt><trkpt lat="40.9322484" lon="14.2670871"><ele>54.857142857142854</ele><time>2026-04-28T16:36:52.464Z</time></trkpt><trkpt lat="40.9321618" lon="14.2671112"><ele>55.285714285714285</ele><time>2026-04-28T16:36:55.56Z</time></trkpt><trkpt lat="40.9321156" lon="14.2671715"><ele>55.71428571428571</ele><time>2026-04-28T16:36:58.487Z</time></trkpt><trkpt lat="40.9320505" lon="14.2671825"><ele>56.14285714285714</ele><time>2026-04-28T16:37:02.545Z</time></trkpt><trkpt lat="40.9319846" lon="14.2672043"><ele>56.57142857142857</ele><time>2026-04-28T16:37:07.404Z</time></trkpt><trkpt lat="40.9319171" lon="14.267234"><ele>57.0</ele><time>2026-04-28T16:37:12.48Z</time></trkpt><trkpt lat="40.9318546" lon="14.267203"><ele>56.857142857142854</ele><time>2026-04-28T16:37:18.494Z</time></trkpt><trkpt lat="40.9318337" lon="14.2672892"><ele>56.71428571428571</ele><time>2026-04-28T16:37:20.512Z</time></trkpt><trkpt lat="40.9317685" lon="14.2673327"><ele>56.57142857142857</ele><time>2026-04-28T16:37:23.564Z</time></trkpt><trkpt lat="40.9317163" lon="14.2673856"><ele>56.42857142857143</ele><time>2026-04-28T16:37:27.476Z</time></trkpt><trkpt lat="40.9316544" lon="14.2674326"><ele>56.285714285714285</ele><time>2026-04-28T16:37:32.523Z</time></trkpt><trkpt lat="40.9315999" lon="14.2675105"><ele>56.14285714285714</ele><time>2026-04-28T16:37:37.494Z</time></trkpt><trkpt lat="40.9315377" lon="14.267594"><ele>56.0</ele><time>2026-04-28T16:37:44.175Z</time></trkpt><trkpt lat="40.9314755" lon="14.267629"><ele>56.0</ele><time>2026-04-28T16:37:46.563Z</time></trkpt><trkpt lat="40.9314182" lon="14.2676822"><ele>56.0</ele><time>2026-04-28T16:37:50.509Z</time></trkpt><trkpt lat="40.9313621" lon="14.2677555"><ele>56.0</ele><time>2026-04-28T16:37:55.496Z</time></trkpt><trkpt lat="40.9312813" lon="14.2677245"><ele>56.0</ele><time>2026-04-28T16:37:58.446Z</time></trkpt><trkpt lat="40.9312359" lon="14.2677961"><ele>56.0</ele><time>2026-04-28T16:38:02.556Z</time></trkpt><trkpt lat="40.9311653" lon="14.2677729"><ele>56.0</ele><time>2026-04-28T16:38:05.582Z</time></trkpt><trkpt lat="40.9311117" lon="14.267722"><ele>56.0</ele><time>2026-04-28T16:38:09.417Z</time></trkpt><trkpt lat="40.9310325" lon="14.2677564"><ele>56.0</ele><time>2026-04-28T16:38:12.46Z</time></trkpt><trkpt lat="40.930966" lon="14.2677565"><ele>56.0</ele><time>2026-04-28T16:38:14.552Z</time></trkpt><trkpt lat="40.9308862" lon="14.2677522"><ele>56.0</ele><time>2026-04-28T16:38:18.534Z</time></trkpt><trkpt lat="40.9308209" lon="14.2677258"><ele>56.0</ele><time>2026-04-28T16:38:22.792Z</time></trkpt><trkpt lat="40.9307474" lon="14.267744"><ele>56.0</ele><time>2026-04-28T16:38:27.102Z</time></trkpt><trkpt lat="40.9306782" lon="14.2677817"><ele>56.0</ele><time>2026-04-28T16:38:31.442Z</time></trkpt><trkpt lat="40.9306287" lon="14.2677217"><ele>56.0</ele><time>2026-04-28T16:38:35.399Z</time></trkpt><trkpt lat="40.9305674" lon="14.2677874"><ele>56.0</ele><time>2026-04-28T16:38:39.465Z</time></trkpt><trkpt lat="40.9304942" lon="14.2678092"><ele>56.0</ele><time>2026-04-28T16:38:42.493Z</time></trkpt><trkpt lat="40.9304305" lon="14.267793"><ele>56.0</ele><time>2026-04-28T16:38:49.518Z</time></trkpt><trkpt lat="40.9303646" lon="14.267792"><ele>56.0</ele><time>2026-04-28T16:38:51.558Z</time></trkpt><trkpt lat="40.9302937" lon="14.267828"><ele>56.0</ele><time>2026-04-28T16:38:55.454Z</time></trkpt><trkpt lat="40.9302286" lon="14.2677926"><ele>56.0</ele><time>2026-04-28T16:38:59.522Z</time></trkpt><trkpt lat="40.9301609" lon="14.2678371"><ele>56.0</ele><time>2026-04-28T16:39:03.501Z</time></trkpt><trkpt lat="40.9300877" lon="14.267865"><ele>56.14285714285714</ele><time>2026-04-28T16:39:08.467Z</time></trkpt><trkpt lat="40.9300213" lon="14.2678593"><ele>56.285714285714285</ele><time>2026-04-28T16:39:11.516Z</time></trkpt><trkpt lat="40.9299492" lon="14.2678605"><ele>56.42857142857143</ele><time>2026-04-28T16:39:15.533Z</time></trkpt><trkpt lat="40.929872" lon="14.2678863"><ele>56.57142857142857</ele><time>2026-04-28T16:39:20.469Z</time></trkpt><trkpt lat="40.9298093" lon="14.2679061"><ele>56.71428571428571</ele><time>2026-04-28T16:39:24.521Z</time></trkpt><trkpt lat="40.9297346" lon="14.2679154"><ele>56.857142857142854</ele><time>2026-04-28T16:39:29.569Z</time></trkpt><trkpt lat="40.9296584" lon="14.2679339"><ele>57.0</ele><time>2026-04-28T16:39:34.47Z</time></trkpt><trkpt lat="40.9295871" lon="14.2679382"><ele>57.0</ele><time>2026-04-28T16:39:38.548Z</time></trkpt><trkpt lat="40.929574" lon="14.2680222"><ele>56.99999999999999</ele><time>2026-04-28T16:39:42.486Z</time></trkpt><trkpt lat="40.9295082" lon="14.2680485"><ele>57.0</ele><time>2026-04-28T16:39:46.542Z</time></trkpt><trkpt lat="40.9294799" lon="14.2681232"><ele>57.0</ele><time>2026-04-28T16:39:51.498Z</time></trkpt><trkpt lat="40.9294372" lon="14.2682012"><ele>56.99999999999999</ele><time>2026-04-28T16:39:58.474Z</time></trkpt><trkpt lat="40.9294433" lon="14.2682922"><ele>57.0</ele><time>2026-04-28T16:40:06.448Z</time></trkpt><trkpt lat="40.9294842" lon="14.2683812"><ele>57.0</ele><time>2026-04-28T16:40:11.581Z</time></trkpt><trkpt lat="40.9295057" lon="14.2684718"><ele>56.857142857142854</ele><time>2026-04-28T16:40:16.542Z</time></trkpt><trkpt lat="40.9294996" lon="14.2685731"><ele>56.71428571428571</ele><time>2026-04-28T16:40:21.512Z</time></trkpt><trkpt lat="40.9295068" lon="14.2686833"><ele>56.57142857142857</ele><time>2026-04-28T16:40:26.537Z</time></trkpt><trkpt lat="40.9295303" lon="14.2687711"><ele>56.42857142857143</ele><time>2026-04-28T16:40:30.473Z</time></trkpt><trkpt lat="40.9295491" lon="14.2688608"><ele>56.285714285714285</ele><time>2026-04-28T16:40:35.52Z</time></trkpt><trkpt lat="40.9295052" lon="14.2689235"><ele>56.14285714285714</ele><time>2026-04-28T16:40:38.25Z</time></trkpt><trkpt lat="40.9294923" lon="14.2690252"><ele>56.0</ele><time>2026-04-28T16:40:43.495Z</time></trkpt><trkpt lat="40.9295555" lon="14.2690538"><ele>55.714285714285715</ele><time>2026-04-28T16:40:46.524Z</time></trkpt><trkpt lat="40.9296069" lon="14.2691082"><ele>55.42857142857143</ele><time>2026-04-28T16:40:48.542Z</time></trkpt><trkpt lat="40.9296249" lon="14.2691894"><ele>55.14285714285714</ele><time>2026-04-28T16:40:51.471Z</time></trkpt><trkpt lat="40.9296901" lon="14.2692448"><ele>54.85714285714286</ele><time>2026-04-28T16:40:55.508Z</time></trkpt><trkpt lat="40.9297021" lon="14.269347"><ele>54.57142857142857</ele><time>2026-04-28T16:41:02.482Z</time></trkpt><trkpt lat="40.9297363" lon="14.2694346"><ele>54.285714285714285</ele><time>2026-04-28T16:41:07.529Z</time></trkpt><trkpt lat="40.9297525" lon="14.269525"><ele>54.0</ele><time>2026-04-28T16:41:13.486Z</time></trkpt><trkpt lat="40.9297766" lon="14.2696207"><ele>54.0</ele><time>2026-04-28T16:41:18.532Z</time></trkpt><trkpt lat="40.9298155" lon="14.2697061"><ele>54.0</ele><time>2026-04-28T16:41:23.579Z</time></trkpt><trkpt lat="40.9297727" lon="14.2697748"><ele>54.0</ele><time>2026-04-28T16:41:27.517Z</time></trkpt><trkpt lat="40.9297345" lon="14.2698595"><ele>54.0</ele><time>2026-04-28T16:41:33.472Z</time></trkpt><trkpt lat="40.9297269" lon="14.269947"><ele>54.0</ele><time>2026-04-28T16:41:39.528Z</time></trkpt><trkpt lat="40.9297334" lon="14.2700326"><ele>54.0</ele><time>2026-04-28T16:41:44.476Z</time></trkpt><trkpt lat="40.9297382" lon="14.270127"><ele>54.0</ele><time>2026-04-28T16:41:50.533Z</time></trkpt><trkpt lat="40.9297587" lon="14.2702194"><ele>53.857142857142854</ele><time>2026-04-28T16:41:55.479Z</time></trkpt><trkpt lat="40.9297612" lon="14.2703031"><ele>53.71428571428571</ele><time>2026-04-28T16:42:00.528Z</time></trkpt><trkpt lat="40.9296974" lon="14.2703499"><ele>53.57142857142857</ele><time>2026-04-28T16:42:05.475Z</time></trkpt><trkpt lat="40.9296393" lon="14.2704031"><ele>53.42857142857143</ele><time>2026-04-28T16:42:13.45Z</time></trkpt><trkpt lat="40.9295834" lon="14.2704494"><ele>53.285714285714285</ele><time>2026-04-28T16:42:17.692Z</time></trkpt><trkpt lat="40.9295388" lon="14.2705108"><ele>53.142857142857146</ele><time>2026-04-28T16:42:28.494Z</time></trkpt><trkpt lat="40.9294606" lon="14.2705506"><ele>53.0</ele><time>2026-04-28T16:42:36.371Z</time></trkpt><trkpt lat="40.9294201" lon="14.2706189"><ele>55.0</ele><time>2026-04-28T16:42:58.49Z</time></trkpt></trkseg></trk></gpx>